<?xml version="1.0" encoding="UTF-8" standalone="no" ?>
<gpx xmlns="http://www.topografix.com/GPX/1/1" xmlns:xsi="http://www.w3.org/2001/XMLSchema-instance" xsi:schemaLocation="http://www.topografix.com/GPX/1/1 http://www.topografix.com/GPX/1/1/gpx.xsd" version="1.1" creator="VisuGPX - https://www.visugpx.com">
  <metadata>
    <name>Crêt de l\'Aigle, Par les Tours St Jacques</name>
    <desc><![CDATA[Crêt de l\'Aigle, Par les Tours St Jacques]]></desc>
  </metadata>
  <wpt lat="45.77631" lon="6.09536">
    <ele>1625</ele>
    <name><![CDATA[Crêt de L'aigle1]]></name>
    <desc><![CDATA[Crêt de L'aigle]]></desc>
    <cmt><![CDATA[Crêt de L'aigle]]></cmt>
    <type><![CDATA[user]]></type>
  </wpt>
  <trk>
    <name><![CDATA[Actuel: 10 FéV 2015 12:24]]></name>
    <trkseg>
      <trkpt lat="45.7522" lon="6.08081">
        <ele>659.29</ele>
        <time>2015-02-10T11:24:15Z</time>
      </trkpt>
      <trkpt lat="45.75223" lon="6.08079">
        <ele>658.92</ele>
        <time>2015-02-10T11:24:16Z</time>
      </trkpt>
      <trkpt lat="45.75224" lon="6.08068">
        <ele>659.64</ele>
        <time>2015-02-10T11:24:27Z</time>
      </trkpt>
      <trkpt lat="45.75229" lon="6.08065">
        <ele>659.29</ele>
        <time>2015-02-10T11:24:39Z</time>
      </trkpt>
      <trkpt lat="45.75227" lon="6.08062">
        <ele>659.5</ele>
        <time>2015-02-10T11:24:54Z</time>
      </trkpt>
      <trkpt lat="45.7523" lon="6.08062">
        <ele>659.78</ele>
        <time>2015-02-10T11:25:13Z</time>
      </trkpt>
      <trkpt lat="45.75242" lon="6.08087">
        <ele>661.75</ele>
        <time>2015-02-10T11:25:27Z</time>
      </trkpt>
      <trkpt lat="45.75252" lon="6.08115">
        <ele>663.7</ele>
        <time>2015-02-10T11:25:40Z</time>
      </trkpt>
      <trkpt lat="45.75256" lon="6.08135">
        <ele>664.47</ele>
        <time>2015-02-10T11:25:49Z</time>
      </trkpt>
      <trkpt lat="45.75263" lon="6.0816">
        <ele>666.93</ele>
        <time>2015-02-10T11:26:02Z</time>
      </trkpt>
      <trkpt lat="45.75265" lon="6.08161">
        <ele>667.09</ele>
        <time>2015-02-10T11:26:03Z</time>
      </trkpt>
      <trkpt lat="45.75281" lon="6.0817">
        <ele>670.42</ele>
        <time>2015-02-10T11:26:16Z</time>
      </trkpt>
      <trkpt lat="45.75296" lon="6.08168">
        <ele>673.74</ele>
        <time>2015-02-10T11:26:27Z</time>
      </trkpt>
      <trkpt lat="45.75306" lon="6.08168">
        <ele>676.06</ele>
        <time>2015-02-10T11:26:36Z</time>
      </trkpt>
      <trkpt lat="45.75311" lon="6.08171">
        <ele>676.81</ele>
        <time>2015-02-10T11:26:40Z</time>
      </trkpt>
      <trkpt lat="45.75318" lon="6.08177">
        <ele>678.65</ele>
        <time>2015-02-10T11:26:47Z</time>
      </trkpt>
      <trkpt lat="45.75323" lon="6.08185">
        <ele>679.9</ele>
        <time>2015-02-10T11:26:53Z</time>
      </trkpt>
      <trkpt lat="45.75326" lon="6.08192">
        <ele>680.93</ele>
        <time>2015-02-10T11:26:58Z</time>
      </trkpt>
      <trkpt lat="45.7533" lon="6.08198">
        <ele>682.23</ele>
        <time>2015-02-10T11:27:06Z</time>
      </trkpt>
      <trkpt lat="45.75337" lon="6.08205">
        <ele>685.36</ele>
        <time>2015-02-10T11:27:19Z</time>
      </trkpt>
      <trkpt lat="45.75341" lon="6.08195">
        <ele>688.51</ele>
        <time>2015-02-10T11:27:31Z</time>
      </trkpt>
      <trkpt lat="45.75346" lon="6.08187">
        <ele>690.7</ele>
        <time>2015-02-10T11:27:50Z</time>
      </trkpt>
      <trkpt lat="45.75346" lon="6.08173">
        <ele>693.83</ele>
        <time>2015-02-10T11:28:08Z</time>
      </trkpt>
      <trkpt lat="45.75355" lon="6.08158">
        <ele>696.59</ele>
        <time>2015-02-10T11:28:26Z</time>
      </trkpt>
      <trkpt lat="45.75364" lon="6.08143">
        <ele>699.6</ele>
        <time>2015-02-10T11:28:44Z</time>
      </trkpt>
      <trkpt lat="45.75367" lon="6.08141">
        <ele>700.08</ele>
        <time>2015-02-10T11:29:03Z</time>
      </trkpt>
      <trkpt lat="45.75371" lon="6.08141">
        <ele>700.18</ele>
        <time>2015-02-10T11:29:37Z</time>
      </trkpt>
      <trkpt lat="45.7537" lon="6.08142">
        <ele>699.85</ele>
        <time>2015-02-10T11:30:01Z</time>
      </trkpt>
      <trkpt lat="45.75371" lon="6.08136">
        <ele>700.21</ele>
        <time>2015-02-10T11:30:30Z</time>
      </trkpt>
      <trkpt lat="45.75384" lon="6.0813">
        <ele>703.37</ele>
        <time>2015-02-10T11:30:43Z</time>
      </trkpt>
      <trkpt lat="45.75395" lon="6.08125">
        <ele>706.37</ele>
        <time>2015-02-10T11:30:53Z</time>
      </trkpt>
      <trkpt lat="45.75406" lon="6.08117">
        <ele>709.57</ele>
        <time>2015-02-10T11:31:05Z</time>
      </trkpt>
      <trkpt lat="45.75413" lon="6.08112">
        <ele>712.64</ele>
        <time>2015-02-10T11:31:15Z</time>
      </trkpt>
      <trkpt lat="45.75414" lon="6.0811">
        <ele>713.14</ele>
        <time>2015-02-10T11:31:17Z</time>
      </trkpt>
      <trkpt lat="45.7542" lon="6.08094">
        <ele>716.6</ele>
        <time>2015-02-10T11:31:31Z</time>
      </trkpt>
      <trkpt lat="45.75431" lon="6.08077">
        <ele>719.68</ele>
        <time>2015-02-10T11:31:45Z</time>
      </trkpt>
      <trkpt lat="45.75442" lon="6.08064">
        <ele>722.79</ele>
        <time>2015-02-10T11:31:58Z</time>
      </trkpt>
      <trkpt lat="45.75447" lon="6.08053">
        <ele>725.83</ele>
        <time>2015-02-10T11:32:08Z</time>
      </trkpt>
      <trkpt lat="45.75456" lon="6.08043">
        <ele>729.19</ele>
        <time>2015-02-10T11:32:20Z</time>
      </trkpt>
      <trkpt lat="45.75465" lon="6.08038">
        <ele>732.28</ele>
        <time>2015-02-10T11:32:31Z</time>
      </trkpt>
      <trkpt lat="45.75473" lon="6.08033">
        <ele>735.58</ele>
        <time>2015-02-10T11:32:42Z</time>
      </trkpt>
      <trkpt lat="45.75478" lon="6.08024">
        <ele>738.61</ele>
        <time>2015-02-10T11:32:53Z</time>
      </trkpt>
      <trkpt lat="45.75485" lon="6.0802">
        <ele>741.72</ele>
        <time>2015-02-10T11:33:06Z</time>
      </trkpt>
      <trkpt lat="45.75491" lon="6.08012">
        <ele>745.06</ele>
        <time>2015-02-10T11:33:19Z</time>
      </trkpt>
      <trkpt lat="45.75499" lon="6.08007">
        <ele>748.03</ele>
        <time>2015-02-10T11:33:31Z</time>
      </trkpt>
      <trkpt lat="45.75505" lon="6.07993">
        <ele>751.05</ele>
        <time>2015-02-10T11:33:47Z</time>
      </trkpt>
      <trkpt lat="45.75517" lon="6.07993">
        <ele>754.28</ele>
        <time>2015-02-10T11:34:01Z</time>
      </trkpt>
      <trkpt lat="45.75526" lon="6.07993">
        <ele>757.41</ele>
        <time>2015-02-10T11:34:12Z</time>
      </trkpt>
      <trkpt lat="45.75537" lon="6.07999">
        <ele>760.48</ele>
        <time>2015-02-10T11:34:24Z</time>
      </trkpt>
      <trkpt lat="45.75544" lon="6.08">
        <ele>763.79</ele>
        <time>2015-02-10T11:34:34Z</time>
      </trkpt>
      <trkpt lat="45.75551" lon="6.07998">
        <ele>767.02</ele>
        <time>2015-02-10T11:34:44Z</time>
      </trkpt>
      <trkpt lat="45.7556" lon="6.07998">
        <ele>770.09</ele>
        <time>2015-02-10T11:34:55Z</time>
      </trkpt>
      <trkpt lat="45.75569" lon="6.07996">
        <ele>773.15</ele>
        <time>2015-02-10T11:35:05Z</time>
      </trkpt>
      <trkpt lat="45.75577" lon="6.0799">
        <ele>776.24</ele>
        <time>2015-02-10T11:35:16Z</time>
      </trkpt>
      <trkpt lat="45.75584" lon="6.07988">
        <ele>777.9</ele>
        <time>2015-02-10T11:35:22Z</time>
      </trkpt>
      <trkpt lat="45.75595" lon="6.07985">
        <ele>781.26</ele>
        <time>2015-02-10T11:35:34Z</time>
      </trkpt>
      <trkpt lat="45.75605" lon="6.07981">
        <ele>784.52</ele>
        <time>2015-02-10T11:35:47Z</time>
      </trkpt>
      <trkpt lat="45.75614" lon="6.07981">
        <ele>787.66</ele>
        <time>2015-02-10T11:35:57Z</time>
      </trkpt>
      <trkpt lat="45.75625" lon="6.07976">
        <ele>790.73</ele>
        <time>2015-02-10T11:36:09Z</time>
      </trkpt>
      <trkpt lat="45.75636" lon="6.07971">
        <ele>794</ele>
        <time>2015-02-10T11:36:23Z</time>
      </trkpt>
      <trkpt lat="45.75644" lon="6.07959">
        <ele>797.25</ele>
        <time>2015-02-10T11:36:36Z</time>
      </trkpt>
      <trkpt lat="45.75645" lon="6.07957">
        <ele>797.74</ele>
        <time>2015-02-10T11:36:38Z</time>
      </trkpt>
      <trkpt lat="45.75656" lon="6.07945">
        <ele>801.12</ele>
        <time>2015-02-10T11:36:51Z</time>
      </trkpt>
      <trkpt lat="45.75659" lon="6.07932">
        <ele>804.45</ele>
        <time>2015-02-10T11:37:03Z</time>
      </trkpt>
      <trkpt lat="45.75663" lon="6.07924">
        <ele>805.92</ele>
        <time>2015-02-10T11:37:09Z</time>
      </trkpt>
      <trkpt lat="45.75667" lon="6.07912">
        <ele>807.09</ele>
        <time>2015-02-10T11:37:29Z</time>
      </trkpt>
      <trkpt lat="45.75668" lon="6.07901">
        <ele>810.33</ele>
        <time>2015-02-10T11:37:46Z</time>
      </trkpt>
      <trkpt lat="45.75672" lon="6.07886">
        <ele>813.51</ele>
        <time>2015-02-10T11:37:57Z</time>
      </trkpt>
      <trkpt lat="45.7568" lon="6.07874">
        <ele>816.54</ele>
        <time>2015-02-10T11:38:07Z</time>
      </trkpt>
      <trkpt lat="45.75692" lon="6.07867">
        <ele>819.86</ele>
        <time>2015-02-10T11:38:19Z</time>
      </trkpt>
      <trkpt lat="45.75693" lon="6.07867">
        <ele>820.09</ele>
        <time>2015-02-10T11:38:20Z</time>
      </trkpt>
      <trkpt lat="45.7571" lon="6.07852">
        <ele>823.12</ele>
        <time>2015-02-10T11:38:37Z</time>
      </trkpt>
      <trkpt lat="45.75722" lon="6.07839">
        <ele>825.43</ele>
        <time>2015-02-10T11:38:49Z</time>
      </trkpt>
      <trkpt lat="45.75731" lon="6.07831">
        <ele>827.84</ele>
        <time>2015-02-10T11:38:59Z</time>
      </trkpt>
      <trkpt lat="45.75734" lon="6.07827">
        <ele>828.81</ele>
        <time>2015-02-10T11:39:02Z</time>
      </trkpt>
      <trkpt lat="45.75744" lon="6.07822">
        <ele>831.94</ele>
        <time>2015-02-10T11:39:12Z</time>
      </trkpt>
      <trkpt lat="45.75754" lon="6.07805">
        <ele>835.29</ele>
        <time>2015-02-10T11:39:26Z</time>
      </trkpt>
      <trkpt lat="45.75761" lon="6.07795">
        <ele>837.89</ele>
        <time>2015-02-10T11:39:37Z</time>
      </trkpt>
      <trkpt lat="45.75763" lon="6.07794">
        <ele>837.94</ele>
        <time>2015-02-10T11:39:38Z</time>
      </trkpt>
      <trkpt lat="45.75774" lon="6.07787">
        <ele>840.01</ele>
        <time>2015-02-10T11:39:49Z</time>
      </trkpt>
      <trkpt lat="45.75786" lon="6.07785">
        <ele>842.56</ele>
        <time>2015-02-10T11:40:01Z</time>
      </trkpt>
      <trkpt lat="45.75803" lon="6.07773">
        <ele>844.18</ele>
        <time>2015-02-10T11:40:19Z</time>
      </trkpt>
      <trkpt lat="45.75813" lon="6.07759">
        <ele>845.24</ele>
        <time>2015-02-10T11:40:28Z</time>
      </trkpt>
      <trkpt lat="45.75817" lon="6.07747">
        <ele>846.01</ele>
        <time>2015-02-10T11:40:35Z</time>
      </trkpt>
      <trkpt lat="45.75821" lon="6.0774">
        <ele>846.75</ele>
        <time>2015-02-10T11:40:40Z</time>
      </trkpt>
      <trkpt lat="45.75824" lon="6.07737">
        <ele>847.13</ele>
        <time>2015-02-10T11:40:43Z</time>
      </trkpt>
      <trkpt lat="45.75835" lon="6.07723">
        <ele>848.55</ele>
        <time>2015-02-10T11:40:53Z</time>
      </trkpt>
      <trkpt lat="45.75836" lon="6.07723">
        <ele>848.69</ele>
        <time>2015-02-10T11:40:54Z</time>
      </trkpt>
      <trkpt lat="45.75839" lon="6.07722">
        <ele>849.06</ele>
        <time>2015-02-10T11:40:56Z</time>
      </trkpt>
      <trkpt lat="45.75852" lon="6.07715">
        <ele>851.29</ele>
        <time>2015-02-10T11:41:09Z</time>
      </trkpt>
      <trkpt lat="45.75869" lon="6.07711">
        <ele>854.38</ele>
        <time>2015-02-10T11:41:25Z</time>
      </trkpt>
      <trkpt lat="45.75875" lon="6.07709">
        <ele>855.34</ele>
        <time>2015-02-10T11:41:30Z</time>
      </trkpt>
      <trkpt lat="45.75877" lon="6.07707">
        <ele>855.78</ele>
        <time>2015-02-10T11:41:32Z</time>
      </trkpt>
      <trkpt lat="45.75894" lon="6.07702">
        <ele>859.08</ele>
        <time>2015-02-10T11:41:47Z</time>
      </trkpt>
      <trkpt lat="45.75906" lon="6.07696">
        <ele>862.27</ele>
        <time>2015-02-10T11:42:00Z</time>
      </trkpt>
      <trkpt lat="45.75914" lon="6.0769">
        <ele>865.37</ele>
        <time>2015-02-10T11:42:10Z</time>
      </trkpt>
      <trkpt lat="45.75925" lon="6.07687">
        <ele>868.58</ele>
        <time>2015-02-10T11:42:23Z</time>
      </trkpt>
      <trkpt lat="45.75934" lon="6.07693">
        <ele>871.85</ele>
        <time>2015-02-10T11:42:36Z</time>
      </trkpt>
      <trkpt lat="45.75945" lon="6.077">
        <ele>874.86</ele>
        <time>2015-02-10T11:42:48Z</time>
      </trkpt>
      <trkpt lat="45.75956" lon="6.07702">
        <ele>878.02</ele>
        <time>2015-02-10T11:43:01Z</time>
      </trkpt>
      <trkpt lat="45.75967" lon="6.07703">
        <ele>881.1</ele>
        <time>2015-02-10T11:43:13Z</time>
      </trkpt>
      <trkpt lat="45.75978" lon="6.07709">
        <ele>884.34</ele>
        <time>2015-02-10T11:43:26Z</time>
      </trkpt>
      <trkpt lat="45.75988" lon="6.07717">
        <ele>886.91</ele>
        <time>2015-02-10T11:43:49Z</time>
      </trkpt>
      <trkpt lat="45.75996" lon="6.07728">
        <ele>890.03</ele>
        <time>2015-02-10T11:44:06Z</time>
      </trkpt>
      <trkpt lat="45.76001" lon="6.07735">
        <ele>893.19</ele>
        <time>2015-02-10T11:44:16Z</time>
      </trkpt>
      <trkpt lat="45.76007" lon="6.07738">
        <ele>896.19</ele>
        <time>2015-02-10T11:44:26Z</time>
      </trkpt>
      <trkpt lat="45.76017" lon="6.0774">
        <ele>899.24</ele>
        <time>2015-02-10T11:44:37Z</time>
      </trkpt>
      <trkpt lat="45.76024" lon="6.07745">
        <ele>901.95</ele>
        <time>2015-02-10T11:44:46Z</time>
      </trkpt>
      <trkpt lat="45.76027" lon="6.07746">
        <ele>903.06</ele>
        <time>2015-02-10T11:44:50Z</time>
      </trkpt>
      <trkpt lat="45.76029" lon="6.07749">
        <ele>903.86</ele>
        <time>2015-02-10T11:44:53Z</time>
      </trkpt>
      <trkpt lat="45.76035" lon="6.07756">
        <ele>906.8</ele>
        <time>2015-02-10T11:45:04Z</time>
      </trkpt>
      <trkpt lat="45.76039" lon="6.07759">
        <ele>908.9</ele>
        <time>2015-02-10T11:45:12Z</time>
      </trkpt>
      <trkpt lat="45.76044" lon="6.07762">
        <ele>910.71</ele>
        <time>2015-02-10T11:45:18Z</time>
      </trkpt>
      <trkpt lat="45.7605" lon="6.07754">
        <ele>913.97</ele>
        <time>2015-02-10T11:45:30Z</time>
      </trkpt>
      <trkpt lat="45.7606" lon="6.0775">
        <ele>916.59</ele>
        <time>2015-02-10T11:45:54Z</time>
      </trkpt>
      <trkpt lat="45.76066" lon="6.07743">
        <ele>919.66</ele>
        <time>2015-02-10T11:46:04Z</time>
      </trkpt>
      <trkpt lat="45.76072" lon="6.07741">
        <ele>922.67</ele>
        <time>2015-02-10T11:46:13Z</time>
      </trkpt>
      <trkpt lat="45.76074" lon="6.07742">
        <ele>923.1</ele>
        <time>2015-02-10T11:46:15Z</time>
      </trkpt>
      <trkpt lat="45.76082" lon="6.07748">
        <ele>926.44</ele>
        <time>2015-02-10T11:46:27Z</time>
      </trkpt>
      <trkpt lat="45.76088" lon="6.07755">
        <ele>929.55</ele>
        <time>2015-02-10T11:46:38Z</time>
      </trkpt>
      <trkpt lat="45.76094" lon="6.07766">
        <ele>932.85</ele>
        <time>2015-02-10T11:46:50Z</time>
      </trkpt>
      <trkpt lat="45.76097" lon="6.0777">
        <ele>934.13</ele>
        <time>2015-02-10T11:46:55Z</time>
      </trkpt>
      <trkpt lat="45.76104" lon="6.07782">
        <ele>937.61</ele>
        <time>2015-02-10T11:47:06Z</time>
      </trkpt>
      <trkpt lat="45.76113" lon="6.07787">
        <ele>940.89</ele>
        <time>2015-02-10T11:47:17Z</time>
      </trkpt>
      <trkpt lat="45.76124" lon="6.07779">
        <ele>943.99</ele>
        <time>2015-02-10T11:47:32Z</time>
      </trkpt>
      <trkpt lat="45.76138" lon="6.07775">
        <ele>947.2</ele>
        <time>2015-02-10T11:47:50Z</time>
      </trkpt>
      <trkpt lat="45.76149" lon="6.07766">
        <ele>950.45</ele>
        <time>2015-02-10T11:48:01Z</time>
      </trkpt>
      <trkpt lat="45.76165" lon="6.0777">
        <ele>953.48</ele>
        <time>2015-02-10T11:48:18Z</time>
      </trkpt>
      <trkpt lat="45.76175" lon="6.07766">
        <ele>954.88</ele>
        <time>2015-02-10T11:48:28Z</time>
      </trkpt>
      <trkpt lat="45.76205" lon="6.07758">
        <ele>957.94</ele>
        <time>2015-02-10T11:48:52Z</time>
      </trkpt>
      <trkpt lat="45.76208" lon="6.0776">
        <ele>958.09</ele>
        <time>2015-02-10T11:48:54Z</time>
      </trkpt>
      <trkpt lat="45.7621" lon="6.07762">
        <ele>958.49</ele>
        <time>2015-02-10T11:48:57Z</time>
      </trkpt>
      <trkpt lat="45.76212" lon="6.07762">
        <ele>958.77</ele>
        <time>2015-02-10T11:48:59Z</time>
      </trkpt>
      <trkpt lat="45.76224" lon="6.07762">
        <ele>960.2</ele>
        <time>2015-02-10T11:49:10Z</time>
      </trkpt>
      <trkpt lat="45.76234" lon="6.07765">
        <ele>961.98</ele>
        <time>2015-02-10T11:49:20Z</time>
      </trkpt>
      <trkpt lat="45.76244" lon="6.07769">
        <ele>962.71</ele>
        <time>2015-02-10T11:49:33Z</time>
      </trkpt>
      <trkpt lat="45.76258" lon="6.07774">
        <ele>965.97</ele>
        <time>2015-02-10T11:49:47Z</time>
      </trkpt>
      <trkpt lat="45.76264" lon="6.07784">
        <ele>968.84</ele>
        <time>2015-02-10T11:49:57Z</time>
      </trkpt>
      <trkpt lat="45.76274" lon="6.07802">
        <ele>972.57</ele>
        <time>2015-02-10T11:50:09Z</time>
      </trkpt>
      <trkpt lat="45.76282" lon="6.07812">
        <ele>975.63</ele>
        <time>2015-02-10T11:50:21Z</time>
      </trkpt>
      <trkpt lat="45.76284" lon="6.07813">
        <ele>976.14</ele>
        <time>2015-02-10T11:50:23Z</time>
      </trkpt>
      <trkpt lat="45.76296" lon="6.07816">
        <ele>979.67</ele>
        <time>2015-02-10T11:50:34Z</time>
      </trkpt>
      <trkpt lat="45.76306" lon="6.0782">
        <ele>982.79</ele>
        <time>2015-02-10T11:50:46Z</time>
      </trkpt>
      <trkpt lat="45.76313" lon="6.07824">
        <ele>985.96</ele>
        <time>2015-02-10T11:50:58Z</time>
      </trkpt>
      <trkpt lat="45.76319" lon="6.07818">
        <ele>988.96</ele>
        <time>2015-02-10T11:51:09Z</time>
      </trkpt>
      <trkpt lat="45.76327" lon="6.07813">
        <ele>992.06</ele>
        <time>2015-02-10T11:51:21Z</time>
      </trkpt>
      <trkpt lat="45.76332" lon="6.07815">
        <ele>993.39</ele>
        <time>2015-02-10T11:51:26Z</time>
      </trkpt>
      <trkpt lat="45.7634" lon="6.07812">
        <ele>996.69</ele>
        <time>2015-02-10T11:51:40Z</time>
      </trkpt>
      <trkpt lat="45.76349" lon="6.07808">
        <ele>999.9</ele>
        <time>2015-02-10T11:51:56Z</time>
      </trkpt>
      <trkpt lat="45.76359" lon="6.07809">
        <ele>1003.08</ele>
        <time>2015-02-10T11:52:07Z</time>
      </trkpt>
      <trkpt lat="45.76369" lon="6.07809">
        <ele>1005.91</ele>
        <time>2015-02-10T11:52:17Z</time>
      </trkpt>
      <trkpt lat="45.76376" lon="6.07822">
        <ele>1007.7</ele>
        <time>2015-02-10T11:52:30Z</time>
      </trkpt>
      <trkpt lat="45.76384" lon="6.07855">
        <ele>1010.19</ele>
        <time>2015-02-10T11:52:52Z</time>
      </trkpt>
      <trkpt lat="45.76394" lon="6.07871">
        <ele>1013.44</ele>
        <time>2015-02-10T11:53:06Z</time>
      </trkpt>
      <trkpt lat="45.76403" lon="6.07871">
        <ele>1016.7</ele>
        <time>2015-02-10T11:53:17Z</time>
      </trkpt>
      <trkpt lat="45.76416" lon="6.07872">
        <ele>1019.77</ele>
        <time>2015-02-10T11:53:30Z</time>
      </trkpt>
      <trkpt lat="45.7643" lon="6.07875">
        <ele>1022.99</ele>
        <time>2015-02-10T11:53:44Z</time>
      </trkpt>
      <trkpt lat="45.76442" lon="6.07877">
        <ele>1026.02</ele>
        <time>2015-02-10T11:53:58Z</time>
      </trkpt>
      <trkpt lat="45.76452" lon="6.07882">
        <ele>1029.1</ele>
        <time>2015-02-10T11:54:10Z</time>
      </trkpt>
      <trkpt lat="45.76461" lon="6.07891">
        <ele>1032.27</ele>
        <time>2015-02-10T11:54:22Z</time>
      </trkpt>
      <trkpt lat="45.76464" lon="6.07903">
        <ele>1035.31</ele>
        <time>2015-02-10T11:54:33Z</time>
      </trkpt>
      <trkpt lat="45.76475" lon="6.07902">
        <ele>1038.42</ele>
        <time>2015-02-10T11:54:45Z</time>
      </trkpt>
      <trkpt lat="45.76493" lon="6.07896">
        <ele>1041.78</ele>
        <time>2015-02-10T11:55:05Z</time>
      </trkpt>
      <trkpt lat="45.76499" lon="6.07897">
        <ele>1042.95</ele>
        <time>2015-02-10T11:55:11Z</time>
      </trkpt>
      <trkpt lat="45.76508" lon="6.07907">
        <ele>1045.2</ele>
        <time>2015-02-10T11:55:21Z</time>
      </trkpt>
      <trkpt lat="45.76521" lon="6.07913">
        <ele>1047.55</ele>
        <time>2015-02-10T11:55:33Z</time>
      </trkpt>
      <trkpt lat="45.7653" lon="6.07928">
        <ele>1050.62</ele>
        <time>2015-02-10T11:55:50Z</time>
      </trkpt>
      <trkpt lat="45.7654" lon="6.07941">
        <ele>1053.79</ele>
        <time>2015-02-10T11:56:03Z</time>
      </trkpt>
      <trkpt lat="45.76552" lon="6.07956">
        <ele>1056.92</ele>
        <time>2015-02-10T11:56:18Z</time>
      </trkpt>
      <trkpt lat="45.76561" lon="6.07966">
        <ele>1059.93</ele>
        <time>2015-02-10T11:56:31Z</time>
      </trkpt>
      <trkpt lat="45.76565" lon="6.07978">
        <ele>1063.17</ele>
        <time>2015-02-10T11:56:44Z</time>
      </trkpt>
      <trkpt lat="45.76572" lon="6.07991">
        <ele>1066.4</ele>
        <time>2015-02-10T11:56:57Z</time>
      </trkpt>
      <trkpt lat="45.76584" lon="6.08007">
        <ele>1069.52</ele>
        <time>2015-02-10T11:57:10Z</time>
      </trkpt>
      <trkpt lat="45.7659" lon="6.08014">
        <ele>1072.8</ele>
        <time>2015-02-10T11:57:23Z</time>
      </trkpt>
      <trkpt lat="45.76593" lon="6.08025">
        <ele>1076.02</ele>
        <time>2015-02-10T11:57:36Z</time>
      </trkpt>
      <trkpt lat="45.76594" lon="6.08031">
        <ele>1077.65</ele>
        <time>2015-02-10T11:57:42Z</time>
      </trkpt>
      <trkpt lat="45.76596" lon="6.08034">
        <ele>1081.18</ele>
        <time>2015-02-10T11:58:09Z</time>
      </trkpt>
      <trkpt lat="45.76602" lon="6.08042">
        <ele>1084.37</ele>
        <time>2015-02-10T11:58:20Z</time>
      </trkpt>
      <trkpt lat="45.76614" lon="6.08045">
        <ele>1087.4</ele>
        <time>2015-02-10T11:58:30Z</time>
      </trkpt>
      <trkpt lat="45.76623" lon="6.08044">
        <ele>1089.31</ele>
        <time>2015-02-10T11:58:38Z</time>
      </trkpt>
      <trkpt lat="45.76632" lon="6.08051">
        <ele>1090.88</ele>
        <time>2015-02-10T11:58:47Z</time>
      </trkpt>
      <trkpt lat="45.76647" lon="6.08067">
        <ele>1094.21</ele>
        <time>2015-02-10T11:59:04Z</time>
      </trkpt>
      <trkpt lat="45.76657" lon="6.0808">
        <ele>1097.21</ele>
        <time>2015-02-10T11:59:16Z</time>
      </trkpt>
      <trkpt lat="45.76672" lon="6.08085">
        <ele>1099.93</ele>
        <time>2015-02-10T11:59:36Z</time>
      </trkpt>
      <trkpt lat="45.76682" lon="6.08082">
        <ele>1102.25</ele>
        <time>2015-02-10T12:00:06Z</time>
      </trkpt>
      <trkpt lat="45.76702" lon="6.08077">
        <ele>1105.17</ele>
        <time>2015-02-10T12:00:30Z</time>
      </trkpt>
      <trkpt lat="45.76714" lon="6.08077">
        <ele>1108.33</ele>
        <time>2015-02-10T12:00:41Z</time>
      </trkpt>
      <trkpt lat="45.76715" lon="6.08077">
        <ele>1108.54</ele>
        <time>2015-02-10T12:00:42Z</time>
      </trkpt>
      <trkpt lat="45.76728" lon="6.08082">
        <ele>1111.83</ele>
        <time>2015-02-10T12:00:54Z</time>
      </trkpt>
      <trkpt lat="45.76733" lon="6.08079">
        <ele>1115.06</ele>
        <time>2015-02-10T12:01:04Z</time>
      </trkpt>
      <trkpt lat="45.76738" lon="6.08073">
        <ele>1118.21</ele>
        <time>2015-02-10T12:01:16Z</time>
      </trkpt>
      <trkpt lat="45.76739" lon="6.08066">
        <ele>1121.27</ele>
        <time>2015-02-10T12:01:29Z</time>
      </trkpt>
      <trkpt lat="45.76736" lon="6.08047">
        <ele>1124.54</ele>
        <time>2015-02-10T12:01:42Z</time>
      </trkpt>
      <trkpt lat="45.76735" lon="6.08029">
        <ele>1127.61</ele>
        <time>2015-02-10T12:01:54Z</time>
      </trkpt>
      <trkpt lat="45.76744" lon="6.08022">
        <ele>1130.64</ele>
        <time>2015-02-10T12:02:07Z</time>
      </trkpt>
      <trkpt lat="45.7675" lon="6.08016">
        <ele>1132.12</ele>
        <time>2015-02-10T12:02:20Z</time>
      </trkpt>
      <trkpt lat="45.76757" lon="6.08019">
        <ele>1135.3</ele>
        <time>2015-02-10T12:02:33Z</time>
      </trkpt>
      <trkpt lat="45.76762" lon="6.08025">
        <ele>1138.36</ele>
        <time>2015-02-10T12:02:44Z</time>
      </trkpt>
      <trkpt lat="45.76767" lon="6.08031">
        <ele>1141.38</ele>
        <time>2015-02-10T12:02:56Z</time>
      </trkpt>
      <trkpt lat="45.76773" lon="6.08039">
        <ele>1144.58</ele>
        <time>2015-02-10T12:03:08Z</time>
      </trkpt>
      <trkpt lat="45.76783" lon="6.08042">
        <ele>1147.66</ele>
        <time>2015-02-10T12:03:20Z</time>
      </trkpt>
      <trkpt lat="45.76788" lon="6.08033">
        <ele>1150.81</ele>
        <time>2015-02-10T12:03:32Z</time>
      </trkpt>
      <trkpt lat="45.76787" lon="6.0802">
        <ele>1153.93</ele>
        <time>2015-02-10T12:03:45Z</time>
      </trkpt>
      <trkpt lat="45.7679" lon="6.08013">
        <ele>1157.07</ele>
        <time>2015-02-10T12:03:56Z</time>
      </trkpt>
      <trkpt lat="45.76789" lon="6.08007">
        <ele>1160.1</ele>
        <time>2015-02-10T12:04:07Z</time>
      </trkpt>
      <trkpt lat="45.76795" lon="6.07998">
        <ele>1163.23</ele>
        <time>2015-02-10T12:04:19Z</time>
      </trkpt>
      <trkpt lat="45.76801" lon="6.07982">
        <ele>1166.48</ele>
        <time>2015-02-10T12:04:33Z</time>
      </trkpt>
      <trkpt lat="45.76812" lon="6.0797">
        <ele>1169.73</ele>
        <time>2015-02-10T12:04:47Z</time>
      </trkpt>
      <trkpt lat="45.76817" lon="6.07959">
        <ele>1171.67</ele>
        <time>2015-02-10T12:05:05Z</time>
      </trkpt>
      <trkpt lat="45.76818" lon="6.07955">
        <ele>1171.87</ele>
        <time>2015-02-10T12:05:14Z</time>
      </trkpt>
      <trkpt lat="45.76826" lon="6.07941">
        <ele>1175.01</ele>
        <time>2015-02-10T12:05:29Z</time>
      </trkpt>
      <trkpt lat="45.76831" lon="6.0793">
        <ele>1178.15</ele>
        <time>2015-02-10T12:05:43Z</time>
      </trkpt>
      <trkpt lat="45.76835" lon="6.0792">
        <ele>1181.22</ele>
        <time>2015-02-10T12:05:55Z</time>
      </trkpt>
      <trkpt lat="45.76837" lon="6.07916">
        <ele>1182.29</ele>
        <time>2015-02-10T12:05:59Z</time>
      </trkpt>
      <trkpt lat="45.76847" lon="6.079">
        <ele>1185.81</ele>
        <time>2015-02-10T12:06:14Z</time>
      </trkpt>
      <trkpt lat="45.76859" lon="6.07892">
        <ele>1188.94</ele>
        <time>2015-02-10T12:06:28Z</time>
      </trkpt>
      <trkpt lat="45.7687" lon="6.07888">
        <ele>1192.07</ele>
        <time>2015-02-10T12:06:42Z</time>
      </trkpt>
      <trkpt lat="45.76883" lon="6.0788">
        <ele>1194.26</ele>
        <time>2015-02-10T12:06:56Z</time>
      </trkpt>
      <trkpt lat="45.76892" lon="6.07869">
        <ele>1195.31</ele>
        <time>2015-02-10T12:07:05Z</time>
      </trkpt>
      <trkpt lat="45.76893" lon="6.07868">
        <ele>1195.69</ele>
        <time>2015-02-10T12:07:08Z</time>
      </trkpt>
      <trkpt lat="45.76896" lon="6.07865">
        <ele>1196.19</ele>
        <time>2015-02-10T12:07:11Z</time>
      </trkpt>
      <trkpt lat="45.76904" lon="6.07838">
        <ele>1198.46</ele>
        <time>2015-02-10T12:07:31Z</time>
      </trkpt>
      <trkpt lat="45.76907" lon="6.07837">
        <ele>1199.98</ele>
        <time>2015-02-10T12:07:37Z</time>
      </trkpt>
      <trkpt lat="45.76909" lon="6.07838">
        <ele>1200.43</ele>
        <time>2015-02-10T12:07:39Z</time>
      </trkpt>
      <trkpt lat="45.76918" lon="6.07847">
        <ele>1202.23</ele>
        <time>2015-02-10T12:07:51Z</time>
      </trkpt>
      <trkpt lat="45.76921" lon="6.07848">
        <ele>1202.28</ele>
        <time>2015-02-10T12:07:59Z</time>
      </trkpt>
      <trkpt lat="45.76933" lon="6.07862">
        <ele>1205.68</ele>
        <time>2015-02-10T12:08:13Z</time>
      </trkpt>
      <trkpt lat="45.76937" lon="6.07877">
        <ele>1208.94</ele>
        <time>2015-02-10T12:08:26Z</time>
      </trkpt>
      <trkpt lat="45.76936" lon="6.07892">
        <ele>1212.12</ele>
        <time>2015-02-10T12:08:39Z</time>
      </trkpt>
      <trkpt lat="45.76938" lon="6.07905">
        <ele>1215.13</ele>
        <time>2015-02-10T12:08:53Z</time>
      </trkpt>
      <trkpt lat="45.76941" lon="6.07907">
        <ele>1216.36</ele>
        <time>2015-02-10T12:08:58Z</time>
      </trkpt>
      <trkpt lat="45.76943" lon="6.07908">
        <ele>1217.44</ele>
        <time>2015-02-10T12:09:18Z</time>
      </trkpt>
      <trkpt lat="45.76951" lon="6.07913">
        <ele>1220.39</ele>
        <time>2015-02-10T12:09:30Z</time>
      </trkpt>
      <trkpt lat="45.76952" lon="6.07925">
        <ele>1221.8</ele>
        <time>2015-02-10T12:09:39Z</time>
      </trkpt>
      <trkpt lat="45.76951" lon="6.07938">
        <ele>1223.8</ele>
        <time>2015-02-10T12:09:48Z</time>
      </trkpt>
      <trkpt lat="45.76947" lon="6.07953">
        <ele>1226.95</ele>
        <time>2015-02-10T12:10:03Z</time>
      </trkpt>
      <trkpt lat="45.76949" lon="6.07966">
        <ele>1229.97</ele>
        <time>2015-02-10T12:10:15Z</time>
      </trkpt>
      <trkpt lat="45.7695" lon="6.07978">
        <ele>1233.17</ele>
        <time>2015-02-10T12:10:31Z</time>
      </trkpt>
      <trkpt lat="45.76953" lon="6.07986">
        <ele>1236.26</ele>
        <time>2015-02-10T12:10:42Z</time>
      </trkpt>
      <trkpt lat="45.7695" lon="6.07999">
        <ele>1239.52</ele>
        <time>2015-02-10T12:10:59Z</time>
      </trkpt>
      <trkpt lat="45.76948" lon="6.08009">
        <ele>1242.66</ele>
        <time>2015-02-10T12:11:11Z</time>
      </trkpt>
      <trkpt lat="45.7695" lon="6.08015">
        <ele>1244.14</ele>
        <time>2015-02-10T12:11:34Z</time>
      </trkpt>
      <trkpt lat="45.76956" lon="6.08014">
        <ele>1245</ele>
        <time>2015-02-10T12:12:04Z</time>
      </trkpt>
      <trkpt lat="45.76952" lon="6.08024">
        <ele>1247.21</ele>
        <time>2015-02-10T12:12:31Z</time>
      </trkpt>
      <trkpt lat="45.76953" lon="6.08038">
        <ele>1250.29</ele>
        <time>2015-02-10T12:12:49Z</time>
      </trkpt>
      <trkpt lat="45.76954" lon="6.08045">
        <ele>1253.33</ele>
        <time>2015-02-10T12:13:01Z</time>
      </trkpt>
      <trkpt lat="45.76955" lon="6.08055">
        <ele>1256.52</ele>
        <time>2015-02-10T12:13:12Z</time>
      </trkpt>
      <trkpt lat="45.76953" lon="6.08065">
        <ele>1259.62</ele>
        <time>2015-02-10T12:13:23Z</time>
      </trkpt>
      <trkpt lat="45.7695" lon="6.08078">
        <ele>1261.98</ele>
        <time>2015-02-10T12:13:42Z</time>
      </trkpt>
      <trkpt lat="45.76948" lon="6.08087">
        <ele>1263.77</ele>
        <time>2015-02-10T12:13:58Z</time>
      </trkpt>
      <trkpt lat="45.76945" lon="6.08098">
        <ele>1267.05</ele>
        <time>2015-02-10T12:14:10Z</time>
      </trkpt>
      <trkpt lat="45.76949" lon="6.08108">
        <ele>1270.36</ele>
        <time>2015-02-10T12:14:23Z</time>
      </trkpt>
      <trkpt lat="45.7695" lon="6.08115">
        <ele>1273.37</ele>
        <time>2015-02-10T12:14:36Z</time>
      </trkpt>
      <trkpt lat="45.76952" lon="6.08123">
        <ele>1276.66</ele>
        <time>2015-02-10T12:14:51Z</time>
      </trkpt>
      <trkpt lat="45.76947" lon="6.08132">
        <ele>1279.88</ele>
        <time>2015-02-10T12:15:06Z</time>
      </trkpt>
      <trkpt lat="45.76939" lon="6.08137">
        <ele>1282.94</ele>
        <time>2015-02-10T12:15:21Z</time>
      </trkpt>
      <trkpt lat="45.76927" lon="6.08142">
        <ele>1286.04</ele>
        <time>2015-02-10T12:15:37Z</time>
      </trkpt>
      <trkpt lat="45.76919" lon="6.08144">
        <ele>1289.2</ele>
        <time>2015-02-10T12:15:52Z</time>
      </trkpt>
      <trkpt lat="45.76909" lon="6.08151">
        <ele>1292.22</ele>
        <time>2015-02-10T12:16:07Z</time>
      </trkpt>
      <trkpt lat="45.76899" lon="6.08157">
        <ele>1294.71</ele>
        <time>2015-02-10T12:16:19Z</time>
      </trkpt>
      <trkpt lat="45.76882" lon="6.08165">
        <ele>1297.82</ele>
        <time>2015-02-10T12:16:37Z</time>
      </trkpt>
      <trkpt lat="45.76875" lon="6.08176">
        <ele>1301.08</ele>
        <time>2015-02-10T12:16:51Z</time>
      </trkpt>
      <trkpt lat="45.76881" lon="6.08182">
        <ele>1304.1</ele>
        <time>2015-02-10T12:17:06Z</time>
      </trkpt>
      <trkpt lat="45.76881" lon="6.08182">
        <ele>1305.16</ele>
        <time>2015-02-10T12:17:10Z</time>
      </trkpt>
      <trkpt lat="45.76883" lon="6.08184">
        <ele>1305.79</ele>
        <time>2015-02-10T12:17:13Z</time>
      </trkpt>
      <trkpt lat="45.76894" lon="6.08196">
        <ele>1309</ele>
        <time>2015-02-10T12:17:29Z</time>
      </trkpt>
      <trkpt lat="45.76905" lon="6.082">
        <ele>1312.17</ele>
        <time>2015-02-10T12:17:41Z</time>
      </trkpt>
      <trkpt lat="45.76912" lon="6.08204">
        <ele>1315.34</ele>
        <time>2015-02-10T12:17:55Z</time>
      </trkpt>
      <trkpt lat="45.76923" lon="6.0822">
        <ele>1318.41</ele>
        <time>2015-02-10T12:18:14Z</time>
      </trkpt>
      <trkpt lat="45.76927" lon="6.08231">
        <ele>1320.04</ele>
        <time>2015-02-10T12:18:37Z</time>
      </trkpt>
      <trkpt lat="45.76928" lon="6.0823">
        <ele>1319.94</ele>
        <time>2015-02-10T12:19:09Z</time>
      </trkpt>
      <trkpt lat="45.76934" lon="6.08239">
        <ele>1322.97</ele>
        <time>2015-02-10T12:19:20Z</time>
      </trkpt>
      <trkpt lat="45.76944" lon="6.08248">
        <ele>1326.15</ele>
        <time>2015-02-10T12:19:33Z</time>
      </trkpt>
      <trkpt lat="45.76952" lon="6.08255">
        <ele>1329.27</ele>
        <time>2015-02-10T12:19:46Z</time>
      </trkpt>
      <trkpt lat="45.76952" lon="6.08264">
        <ele>1331.92</ele>
        <time>2015-02-10T12:19:59Z</time>
      </trkpt>
      <trkpt lat="45.76953" lon="6.0827">
        <ele>1335.23</ele>
        <time>2015-02-10T12:20:13Z</time>
      </trkpt>
      <trkpt lat="45.76953" lon="6.08271">
        <ele>1335.29</ele>
        <time>2015-02-10T12:20:14Z</time>
      </trkpt>
      <trkpt lat="45.76947" lon="6.08275">
        <ele>1336.85</ele>
        <time>2015-02-10T12:20:30Z</time>
      </trkpt>
      <trkpt lat="45.76943" lon="6.08273">
        <ele>1338.56</ele>
        <time>2015-02-10T12:20:50Z</time>
      </trkpt>
      <trkpt lat="45.76941" lon="6.08272">
        <ele>1340.68</ele>
        <time>2015-02-10T12:21:15Z</time>
      </trkpt>
      <trkpt lat="45.76932" lon="6.08281">
        <ele>1343.75</ele>
        <time>2015-02-10T12:21:31Z</time>
      </trkpt>
      <trkpt lat="45.7692" lon="6.08287">
        <ele>1346.82</ele>
        <time>2015-02-10T12:21:49Z</time>
      </trkpt>
      <trkpt lat="45.76907" lon="6.0829">
        <ele>1350.05</ele>
        <time>2015-02-10T12:22:05Z</time>
      </trkpt>
      <trkpt lat="45.76905" lon="6.08287">
        <ele>1351.17</ele>
        <time>2015-02-10T12:22:26Z</time>
      </trkpt>
      <trkpt lat="45.76905" lon="6.08288">
        <ele>1351.17</ele>
        <time>2015-02-10T12:22:53Z</time>
      </trkpt>
      <trkpt lat="45.76907" lon="6.08289">
        <ele>1351.38</ele>
        <time>2015-02-10T12:22:54Z</time>
      </trkpt>
      <trkpt lat="45.7692" lon="6.08297">
        <ele>1354.58</ele>
        <time>2015-02-10T12:23:13Z</time>
      </trkpt>
      <trkpt lat="45.76929" lon="6.08306">
        <ele>1357.73</ele>
        <time>2015-02-10T12:23:29Z</time>
      </trkpt>
      <trkpt lat="45.76928" lon="6.08309">
        <ele>1359.88</ele>
        <time>2015-02-10T12:23:48Z</time>
      </trkpt>
      <trkpt lat="45.76921" lon="6.08311">
        <ele>1361.65</ele>
        <time>2015-02-10T12:24:07Z</time>
      </trkpt>
      <trkpt lat="45.76913" lon="6.08314">
        <ele>1364.1</ele>
        <time>2015-02-10T12:24:29Z</time>
      </trkpt>
      <trkpt lat="45.76913" lon="6.08312">
        <ele>1364.2</ele>
        <time>2015-02-10T12:24:51Z</time>
      </trkpt>
      <trkpt lat="45.76923" lon="6.08317">
        <ele>1366.73</ele>
        <time>2015-02-10T12:25:10Z</time>
      </trkpt>
      <trkpt lat="45.7692" lon="6.08319">
        <ele>1367.16</ele>
        <time>2015-02-10T12:25:29Z</time>
      </trkpt>
      <trkpt lat="45.76912" lon="6.08322">
        <ele>1369.23</ele>
        <time>2015-02-10T12:25:45Z</time>
      </trkpt>
      <trkpt lat="45.76918" lon="6.08324">
        <ele>1370.24</ele>
        <time>2015-02-10T12:26:03Z</time>
      </trkpt>
      <trkpt lat="45.76933" lon="6.08329">
        <ele>1373.3</ele>
        <time>2015-02-10T12:26:25Z</time>
      </trkpt>
      <trkpt lat="45.76939" lon="6.08332">
        <ele>1375.25</ele>
        <time>2015-02-10T12:26:43Z</time>
      </trkpt>
      <trkpt lat="45.76947" lon="6.08339">
        <ele>1378.27</ele>
        <time>2015-02-10T12:26:57Z</time>
      </trkpt>
      <trkpt lat="45.76953" lon="6.08346">
        <ele>1381.46</ele>
        <time>2015-02-10T12:27:13Z</time>
      </trkpt>
      <trkpt lat="45.76955" lon="6.08352">
        <ele>1383.17</ele>
        <time>2015-02-10T12:27:35Z</time>
      </trkpt>
      <trkpt lat="45.76961" lon="6.08356">
        <ele>1384.5</ele>
        <time>2015-02-10T12:27:57Z</time>
      </trkpt>
      <trkpt lat="45.7697" lon="6.08362">
        <ele>1386.57</ele>
        <time>2015-02-10T12:28:15Z</time>
      </trkpt>
      <trkpt lat="45.76979" lon="6.08366">
        <ele>1388.91</ele>
        <time>2015-02-10T12:28:32Z</time>
      </trkpt>
      <trkpt lat="45.76979" lon="6.08365">
        <ele>1389.26</ele>
        <time>2015-02-10T12:28:50Z</time>
      </trkpt>
      <trkpt lat="45.76977" lon="6.08363">
        <ele>1389.19</ele>
        <time>2015-02-10T12:29:20Z</time>
      </trkpt>
      <trkpt lat="45.76974" lon="6.08366">
        <ele>1389.76</ele>
        <time>2015-02-10T12:29:26Z</time>
      </trkpt>
      <trkpt lat="45.76965" lon="6.08372">
        <ele>1393.12</ele>
        <time>2015-02-10T12:29:38Z</time>
      </trkpt>
      <trkpt lat="45.76959" lon="6.08377">
        <ele>1396.02</ele>
        <time>2015-02-10T12:29:49Z</time>
      </trkpt>
      <trkpt lat="45.76954" lon="6.08376">
        <ele>1396.99</ele>
        <time>2015-02-10T12:30:08Z</time>
      </trkpt>
      <trkpt lat="45.76948" lon="6.08377">
        <ele>1399.49</ele>
        <time>2015-02-10T12:30:28Z</time>
      </trkpt>
      <trkpt lat="45.76952" lon="6.0838">
        <ele>1400.81</ele>
        <time>2015-02-10T12:30:36Z</time>
      </trkpt>
      <trkpt lat="45.76968" lon="6.08392">
        <ele>1404.02</ele>
        <time>2015-02-10T12:30:53Z</time>
      </trkpt>
      <trkpt lat="45.76979" lon="6.08396">
        <ele>1405.19</ele>
        <time>2015-02-10T12:31:11Z</time>
      </trkpt>
      <trkpt lat="45.76988" lon="6.08402">
        <ele>1408.21</ele>
        <time>2015-02-10T12:31:24Z</time>
      </trkpt>
      <trkpt lat="45.76994" lon="6.08409">
        <ele>1410.27</ele>
        <time>2015-02-10T12:31:42Z</time>
      </trkpt>
      <trkpt lat="45.76992" lon="6.08409">
        <ele>1410.27</ele>
        <time>2015-02-10T12:31:54Z</time>
      </trkpt>
      <trkpt lat="45.76986" lon="6.08413">
        <ele>1412.73</ele>
        <time>2015-02-10T12:32:11Z</time>
      </trkpt>
      <trkpt lat="45.76977" lon="6.08414">
        <ele>1415.74</ele>
        <time>2015-02-10T12:32:26Z</time>
      </trkpt>
      <trkpt lat="45.76968" lon="6.08417">
        <ele>1418.88</ele>
        <time>2015-02-10T12:32:41Z</time>
      </trkpt>
      <trkpt lat="45.76962" lon="6.08423">
        <ele>1422.01</ele>
        <time>2015-02-10T12:32:56Z</time>
      </trkpt>
      <trkpt lat="45.76948" lon="6.08422">
        <ele>1424.86</ele>
        <time>2015-02-10T12:33:12Z</time>
      </trkpt>
      <trkpt lat="45.76938" lon="6.08423">
        <ele>1427.96</ele>
        <time>2015-02-10T12:33:29Z</time>
      </trkpt>
      <trkpt lat="45.76937" lon="6.08423">
        <ele>1429.12</ele>
        <time>2015-02-10T12:33:49Z</time>
      </trkpt>
      <trkpt lat="45.76931" lon="6.08429">
        <ele>1431.11</ele>
        <time>2015-02-10T12:34:09Z</time>
      </trkpt>
      <trkpt lat="45.76932" lon="6.0844">
        <ele>1434.43</ele>
        <time>2015-02-10T12:34:25Z</time>
      </trkpt>
      <trkpt lat="45.76929" lon="6.08453">
        <ele>1437.83</ele>
        <time>2015-02-10T12:34:39Z</time>
      </trkpt>
      <trkpt lat="45.76933" lon="6.0846">
        <ele>1440.95</ele>
        <time>2015-02-10T12:34:52Z</time>
      </trkpt>
      <trkpt lat="45.76942" lon="6.08461">
        <ele>1443.98</ele>
        <time>2015-02-10T12:35:05Z</time>
      </trkpt>
      <trkpt lat="45.76949" lon="6.08471">
        <ele>1447.25</ele>
        <time>2015-02-10T12:35:19Z</time>
      </trkpt>
      <trkpt lat="45.76954" lon="6.08477">
        <ele>1450.29</ele>
        <time>2015-02-10T12:35:32Z</time>
      </trkpt>
      <trkpt lat="45.76957" lon="6.08472">
        <ele>1451.35</ele>
        <time>2015-02-10T12:35:52Z</time>
      </trkpt>
      <trkpt lat="45.7695" lon="6.08473">
        <ele>1451.57</ele>
        <time>2015-02-10T12:36:28Z</time>
      </trkpt>
      <trkpt lat="45.76951" lon="6.08473">
        <ele>1451.56</ele>
        <time>2015-02-10T12:36:31Z</time>
      </trkpt>
      <trkpt lat="45.76962" lon="6.08484">
        <ele>1454.61</ele>
        <time>2015-02-10T12:36:45Z</time>
      </trkpt>
      <trkpt lat="45.76958" lon="6.08495">
        <ele>1457.01</ele>
        <time>2015-02-10T12:36:57Z</time>
      </trkpt>
      <trkpt lat="45.76958" lon="6.08507">
        <ele>1460.45</ele>
        <time>2015-02-10T12:37:11Z</time>
      </trkpt>
      <trkpt lat="45.76968" lon="6.08511">
        <ele>1463.57</ele>
        <time>2015-02-10T12:37:26Z</time>
      </trkpt>
      <trkpt lat="45.76981" lon="6.08516">
        <ele>1466.79</ele>
        <time>2015-02-10T12:37:48Z</time>
      </trkpt>
      <trkpt lat="45.76991" lon="6.0852">
        <ele>1469.83</ele>
        <time>2015-02-10T12:38:03Z</time>
      </trkpt>
      <trkpt lat="45.76992" lon="6.08519">
        <ele>1470.74</ele>
        <time>2015-02-10T12:38:25Z</time>
      </trkpt>
      <trkpt lat="45.76994" lon="6.08525">
        <ele>1471.37</ele>
        <time>2015-02-10T12:38:55Z</time>
      </trkpt>
      <trkpt lat="45.76992" lon="6.08528">
        <ele>1473.96</ele>
        <time>2015-02-10T12:39:16Z</time>
      </trkpt>
      <trkpt lat="45.76981" lon="6.08538">
        <ele>1477.07</ele>
        <time>2015-02-10T12:39:32Z</time>
      </trkpt>
      <trkpt lat="45.76974" lon="6.08543">
        <ele>1480.16</ele>
        <time>2015-02-10T12:39:45Z</time>
      </trkpt>
      <trkpt lat="45.76975" lon="6.0855">
        <ele>1480.73</ele>
        <time>2015-02-10T12:40:11Z</time>
      </trkpt>
      <trkpt lat="45.76976" lon="6.08553">
        <ele>1483.62</ele>
        <time>2015-02-10T12:40:34Z</time>
      </trkpt>
      <trkpt lat="45.76981" lon="6.08555">
        <ele>1486.75</ele>
        <time>2015-02-10T12:40:51Z</time>
      </trkpt>
      <trkpt lat="45.76986" lon="6.08561">
        <ele>1489.68</ele>
        <time>2015-02-10T12:41:14Z</time>
      </trkpt>
      <trkpt lat="45.76985" lon="6.08558">
        <ele>1490.84</ele>
        <time>2015-02-10T12:41:38Z</time>
      </trkpt>
      <trkpt lat="45.76988" lon="6.0856">
        <ele>1491.59</ele>
        <time>2015-02-10T12:42:01Z</time>
      </trkpt>
      <trkpt lat="45.76987" lon="6.08559">
        <ele>1491.46</ele>
        <time>2015-02-10T12:42:30Z</time>
      </trkpt>
      <trkpt lat="45.76986" lon="6.0856">
        <ele>1491.04</ele>
        <time>2015-02-10T12:42:48Z</time>
      </trkpt>
      <trkpt lat="45.7698" lon="6.08559">
        <ele>1490.3</ele>
        <time>2015-02-10T12:43:08Z</time>
      </trkpt>
      <trkpt lat="45.76988" lon="6.08564">
        <ele>1493.07</ele>
        <time>2015-02-10T12:43:27Z</time>
      </trkpt>
      <trkpt lat="45.76989" lon="6.08572">
        <ele>1496.45</ele>
        <time>2015-02-10T12:43:45Z</time>
      </trkpt>
      <trkpt lat="45.76983" lon="6.08587">
        <ele>1498.81</ele>
        <time>2015-02-10T12:44:05Z</time>
      </trkpt>
      <trkpt lat="45.7698" lon="6.08591">
        <ele>1499.63</ele>
        <time>2015-02-10T12:44:29Z</time>
      </trkpt>
      <trkpt lat="45.7698" lon="6.08592">
        <ele>1499.82</ele>
        <time>2015-02-10T12:44:30Z</time>
      </trkpt>
      <trkpt lat="45.76982" lon="6.08607">
        <ele>1503.35</ele>
        <time>2015-02-10T12:44:44Z</time>
      </trkpt>
      <trkpt lat="45.76986" lon="6.08608">
        <ele>1503.78</ele>
        <time>2015-02-10T12:44:47Z</time>
      </trkpt>
      <trkpt lat="45.77009" lon="6.08606">
        <ele>1506.92</ele>
        <time>2015-02-10T12:45:08Z</time>
      </trkpt>
      <trkpt lat="45.77028" lon="6.08607">
        <ele>1509.93</ele>
        <time>2015-02-10T12:45:26Z</time>
      </trkpt>
      <trkpt lat="45.77045" lon="6.08608">
        <ele>1512.05</ele>
        <time>2015-02-10T12:45:41Z</time>
      </trkpt>
      <trkpt lat="45.77054" lon="6.08609">
        <ele>1513.63</ele>
        <time>2015-02-10T12:45:52Z</time>
      </trkpt>
      <trkpt lat="45.77064" lon="6.08616">
        <ele>1515.11</ele>
        <time>2015-02-10T12:46:05Z</time>
      </trkpt>
      <trkpt lat="45.77068" lon="6.08614">
        <ele>1515.46</ele>
        <time>2015-02-10T12:46:09Z</time>
      </trkpt>
      <trkpt lat="45.77075" lon="6.08607">
        <ele>1517.03</ele>
        <time>2015-02-10T12:46:20Z</time>
      </trkpt>
      <trkpt lat="45.77081" lon="6.08606">
        <ele>1518.08</ele>
        <time>2015-02-10T12:46:24Z</time>
      </trkpt>
      <trkpt lat="45.77094" lon="6.08599">
        <ele>1521.01</ele>
        <time>2015-02-10T12:46:39Z</time>
      </trkpt>
      <trkpt lat="45.77111" lon="6.08599">
        <ele>1524.3</ele>
        <time>2015-02-10T12:46:54Z</time>
      </trkpt>
      <trkpt lat="45.7713" lon="6.08592">
        <ele>1527.39</ele>
        <time>2015-02-10T12:47:09Z</time>
      </trkpt>
      <trkpt lat="45.77145" lon="6.08586">
        <ele>1530.48</ele>
        <time>2015-02-10T12:47:24Z</time>
      </trkpt>
      <trkpt lat="45.77162" lon="6.0858">
        <ele>1533.51</ele>
        <time>2015-02-10T12:47:41Z</time>
      </trkpt>
      <trkpt lat="45.77172" lon="6.08577">
        <ele>1536.66</ele>
        <time>2015-02-10T12:47:53Z</time>
      </trkpt>
      <trkpt lat="45.77189" lon="6.08579">
        <ele>1539.77</ele>
        <time>2015-02-10T12:48:08Z</time>
      </trkpt>
      <trkpt lat="45.77199" lon="6.0858">
        <ele>1542.82</ele>
        <time>2015-02-10T12:48:20Z</time>
      </trkpt>
      <trkpt lat="45.77207" lon="6.08582">
        <ele>1545.83</ele>
        <time>2015-02-10T12:48:32Z</time>
      </trkpt>
      <trkpt lat="45.77212" lon="6.08586">
        <ele>1547.86</ele>
        <time>2015-02-10T12:48:48Z</time>
      </trkpt>
      <trkpt lat="45.77222" lon="6.0859">
        <ele>1550.51</ele>
        <time>2015-02-10T12:49:10Z</time>
      </trkpt>
      <trkpt lat="45.77232" lon="6.08595">
        <ele>1552.98</ele>
        <time>2015-02-10T12:49:21Z</time>
      </trkpt>
      <trkpt lat="45.77246" lon="6.08598">
        <ele>1555.59</ele>
        <time>2015-02-10T12:49:34Z</time>
      </trkpt>
      <trkpt lat="45.77252" lon="6.08601">
        <ele>1556.76</ele>
        <time>2015-02-10T12:49:41Z</time>
      </trkpt>
      <trkpt lat="45.77256" lon="6.08605">
        <ele>1557.76</ele>
        <time>2015-02-10T12:49:45Z</time>
      </trkpt>
      <trkpt lat="45.77266" lon="6.08622">
        <ele>1559.78</ele>
        <time>2015-02-10T12:50:00Z</time>
      </trkpt>
      <trkpt lat="45.77274" lon="6.08635">
        <ele>1561.19</ele>
        <time>2015-02-10T12:50:10Z</time>
      </trkpt>
      <trkpt lat="45.77281" lon="6.08646">
        <ele>1563.81</ele>
        <time>2015-02-10T12:50:23Z</time>
      </trkpt>
      <trkpt lat="45.77305" lon="6.08655">
        <ele>1566.37</ele>
        <time>2015-02-10T12:50:46Z</time>
      </trkpt>
      <trkpt lat="45.77318" lon="6.08666">
        <ele>1568.26</ele>
        <time>2015-02-10T12:50:59Z</time>
      </trkpt>
      <trkpt lat="45.77324" lon="6.0867">
        <ele>1568.95</ele>
        <time>2015-02-10T12:51:03Z</time>
      </trkpt>
      <trkpt lat="45.7733" lon="6.08675">
        <ele>1570.09</ele>
        <time>2015-02-10T12:51:10Z</time>
      </trkpt>
      <trkpt lat="45.77332" lon="6.08677">
        <ele>1570.85</ele>
        <time>2015-02-10T12:51:13Z</time>
      </trkpt>
      <trkpt lat="45.77347" lon="6.08687">
        <ele>1574.22</ele>
        <time>2015-02-10T12:51:27Z</time>
      </trkpt>
      <trkpt lat="45.7735" lon="6.08688">
        <ele>1574.67</ele>
        <time>2015-02-10T12:51:29Z</time>
      </trkpt>
      <trkpt lat="45.77361" lon="6.08697">
        <ele>1576.22</ele>
        <time>2015-02-10T12:51:40Z</time>
      </trkpt>
      <trkpt lat="45.77367" lon="6.08702">
        <ele>1576.97</ele>
        <time>2015-02-10T12:51:46Z</time>
      </trkpt>
      <trkpt lat="45.7737" lon="6.08706">
        <ele>1577.61</ele>
        <time>2015-02-10T12:51:49Z</time>
      </trkpt>
      <trkpt lat="45.77371" lon="6.08711">
        <ele>1578.33</ele>
        <time>2015-02-10T12:51:52Z</time>
      </trkpt>
      <trkpt lat="45.7738" lon="6.0873">
        <ele>1581.82</ele>
        <time>2015-02-10T12:52:08Z</time>
      </trkpt>
      <trkpt lat="45.7739" lon="6.08745">
        <ele>1584.29</ele>
        <time>2015-02-10T12:52:22Z</time>
      </trkpt>
      <trkpt lat="45.77394" lon="6.08751">
        <ele>1585.14</ele>
        <time>2015-02-10T12:52:27Z</time>
      </trkpt>
      <trkpt lat="45.77399" lon="6.08759">
        <ele>1586.14</ele>
        <time>2015-02-10T12:52:33Z</time>
      </trkpt>
      <trkpt lat="45.77407" lon="6.08776">
        <ele>1588.48</ele>
        <time>2015-02-10T12:52:47Z</time>
      </trkpt>
      <trkpt lat="45.77416" lon="6.0879">
        <ele>1590.71</ele>
        <time>2015-02-10T12:52:59Z</time>
      </trkpt>
      <trkpt lat="45.77424" lon="6.08803">
        <ele>1591.95</ele>
        <time>2015-02-10T12:53:10Z</time>
      </trkpt>
      <trkpt lat="45.77429" lon="6.08815">
        <ele>1593.53</ele>
        <time>2015-02-10T12:53:20Z</time>
      </trkpt>
      <trkpt lat="45.77434" lon="6.08828">
        <ele>1595.76</ele>
        <time>2015-02-10T12:53:32Z</time>
      </trkpt>
      <trkpt lat="45.77434" lon="6.08831">
        <ele>1595.74</ele>
        <time>2015-02-10T12:53:44Z</time>
      </trkpt>
      <trkpt lat="45.77442" lon="6.08845">
        <ele>1596.94</ele>
        <time>2015-02-10T12:53:55Z</time>
      </trkpt>
      <trkpt lat="45.77446" lon="6.08857">
        <ele>1599.35</ele>
        <time>2015-02-10T12:54:04Z</time>
      </trkpt>
      <trkpt lat="45.77451" lon="6.08869">
        <ele>1600.26</ele>
        <time>2015-02-10T12:54:13Z</time>
      </trkpt>
      <trkpt lat="45.77458" lon="6.08887">
        <ele>1601.53</ele>
        <time>2015-02-10T12:54:27Z</time>
      </trkpt>
      <trkpt lat="45.77462" lon="6.08907">
        <ele>1604.24</ele>
        <time>2015-02-10T12:54:41Z</time>
      </trkpt>
      <trkpt lat="45.77465" lon="6.08921">
        <ele>1606.06</ele>
        <time>2015-02-10T12:54:50Z</time>
      </trkpt>
      <trkpt lat="45.77466" lon="6.08927">
        <ele>1606.73</ele>
        <time>2015-02-10T12:54:55Z</time>
      </trkpt>
      <trkpt lat="45.77469" lon="6.08943">
        <ele>1608.57</ele>
        <time>2015-02-10T12:55:08Z</time>
      </trkpt>
      <trkpt lat="45.77469" lon="6.08958">
        <ele>1610.56</ele>
        <time>2015-02-10T12:55:19Z</time>
      </trkpt>
      <trkpt lat="45.77472" lon="6.08976">
        <ele>1612.54</ele>
        <time>2015-02-10T12:55:32Z</time>
      </trkpt>
      <trkpt lat="45.77471" lon="6.08995">
        <ele>1615.67</ele>
        <time>2015-02-10T12:55:49Z</time>
      </trkpt>
      <trkpt lat="45.77471" lon="6.09015">
        <ele>1618.34</ele>
        <time>2015-02-10T12:56:05Z</time>
      </trkpt>
      <trkpt lat="45.77469" lon="6.09036">
        <ele>1620.9</ele>
        <time>2015-02-10T12:56:21Z</time>
      </trkpt>
      <trkpt lat="45.77468" lon="6.0906">
        <ele>1622.44</ele>
        <time>2015-02-10T12:56:38Z</time>
      </trkpt>
      <trkpt lat="45.77466" lon="6.09076">
        <ele>1623.42</ele>
        <time>2015-02-10T12:56:50Z</time>
      </trkpt>
      <trkpt lat="45.77463" lon="6.0909">
        <ele>1623.9</ele>
        <time>2015-02-10T12:57:00Z</time>
      </trkpt>
      <trkpt lat="45.77462" lon="6.09107">
        <ele>1625.43</ele>
        <time>2015-02-10T12:57:11Z</time>
      </trkpt>
      <trkpt lat="45.77462" lon="6.09123">
        <ele>1628.24</ele>
        <time>2015-02-10T12:57:24Z</time>
      </trkpt>
      <trkpt lat="45.77456" lon="6.09143">
        <ele>1630.8</ele>
        <time>2015-02-10T12:57:42Z</time>
      </trkpt>
      <trkpt lat="45.77456" lon="6.09145">
        <ele>1630.97</ele>
        <time>2015-02-10T12:57:44Z</time>
      </trkpt>
      <trkpt lat="45.77453" lon="6.09153">
        <ele>1630.9</ele>
        <time>2015-02-10T12:57:49Z</time>
      </trkpt>
      <trkpt lat="45.77454" lon="6.09158">
        <ele>1630.66</ele>
        <time>2015-02-10T12:57:52Z</time>
      </trkpt>
      <trkpt lat="45.77456" lon="6.09175">
        <ele>1631.04</ele>
        <time>2015-02-10T12:58:03Z</time>
      </trkpt>
      <trkpt lat="45.77457" lon="6.09176">
        <ele>1631.24</ele>
        <time>2015-02-10T12:58:04Z</time>
      </trkpt>
      <trkpt lat="45.77459" lon="6.09178">
        <ele>1631.42</ele>
        <time>2015-02-10T12:58:11Z</time>
      </trkpt>
      <trkpt lat="45.77471" lon="6.09195">
        <ele>1632.62</ele>
        <time>2015-02-10T12:58:24Z</time>
      </trkpt>
      <trkpt lat="45.77474" lon="6.09207">
        <ele>1632.96</ele>
        <time>2015-02-10T12:58:31Z</time>
      </trkpt>
      <trkpt lat="45.77484" lon="6.0922">
        <ele>1633.51</ele>
        <time>2015-02-10T12:58:41Z</time>
      </trkpt>
      <trkpt lat="45.775" lon="6.09242">
        <ele>1634.21</ele>
        <time>2015-02-10T12:58:54Z</time>
      </trkpt>
      <trkpt lat="45.77508" lon="6.09268">
        <ele>1634.48</ele>
        <time>2015-02-10T12:59:08Z</time>
      </trkpt>
      <trkpt lat="45.77509" lon="6.09273">
        <ele>1634.88</ele>
        <time>2015-02-10T12:59:10Z</time>
      </trkpt>
      <trkpt lat="45.77516" lon="6.09293">
        <ele>1634.35</ele>
        <time>2015-02-10T12:59:20Z</time>
      </trkpt>
      <trkpt lat="45.77519" lon="6.09301">
        <ele>1634.93</ele>
        <time>2015-02-10T12:59:25Z</time>
      </trkpt>
      <trkpt lat="45.77522" lon="6.09308">
        <ele>1635.13</ele>
        <time>2015-02-10T12:59:29Z</time>
      </trkpt>
      <trkpt lat="45.77524" lon="6.09313">
        <ele>1635.62</ele>
        <time>2015-02-10T12:59:32Z</time>
      </trkpt>
      <trkpt lat="45.77522" lon="6.09333">
        <ele>1636.17</ele>
        <time>2015-02-10T12:59:42Z</time>
      </trkpt>
      <trkpt lat="45.77519" lon="6.09352">
        <ele>1638.07</ele>
        <time>2015-02-10T12:59:54Z</time>
      </trkpt>
      <trkpt lat="45.77519" lon="6.09357">
        <ele>1638.36</ele>
        <time>2015-02-10T13:00:09Z</time>
      </trkpt>
      <trkpt lat="45.7752" lon="6.09375">
        <ele>1640.55</ele>
        <time>2015-02-10T13:00:23Z</time>
      </trkpt>
      <trkpt lat="45.77523" lon="6.09393">
        <ele>1642.94</ele>
        <time>2015-02-10T13:00:36Z</time>
      </trkpt>
      <trkpt lat="45.77523" lon="6.09395">
        <ele>1643.55</ele>
        <time>2015-02-10T13:00:38Z</time>
      </trkpt>
      <trkpt lat="45.77527" lon="6.09415">
        <ele>1646.13</ele>
        <time>2015-02-10T13:00:53Z</time>
      </trkpt>
      <trkpt lat="45.77529" lon="6.09423">
        <ele>1647.2</ele>
        <time>2015-02-10T13:01:00Z</time>
      </trkpt>
      <trkpt lat="45.7754" lon="6.09435">
        <ele>1649.68</ele>
        <time>2015-02-10T13:01:14Z</time>
      </trkpt>
      <trkpt lat="45.77549" lon="6.09444">
        <ele>1651.07</ele>
        <time>2015-02-10T13:01:23Z</time>
      </trkpt>
      <trkpt lat="45.77558" lon="6.09455">
        <ele>1653.4</ele>
        <time>2015-02-10T13:01:34Z</time>
      </trkpt>
      <trkpt lat="45.77568" lon="6.09463">
        <ele>1656.45</ele>
        <time>2015-02-10T13:01:48Z</time>
      </trkpt>
      <trkpt lat="45.77582" lon="6.09467">
        <ele>1659.4</ele>
        <time>2015-02-10T13:02:04Z</time>
      </trkpt>
      <trkpt lat="45.77582" lon="6.09467">
        <ele>1659.65</ele>
        <time>2015-02-10T13:02:05Z</time>
      </trkpt>
      <trkpt lat="45.77584" lon="6.09469">
        <ele>1660.16</ele>
        <time>2015-02-10T13:02:07Z</time>
      </trkpt>
      <trkpt lat="45.77588" lon="6.0948">
        <ele>1663.13</ele>
        <time>2015-02-10T13:02:18Z</time>
      </trkpt>
      <trkpt lat="45.77594" lon="6.09486">
        <ele>1666.28</ele>
        <time>2015-02-10T13:02:29Z</time>
      </trkpt>
      <trkpt lat="45.77605" lon="6.09494">
        <ele>1669.41</ele>
        <time>2015-02-10T13:02:45Z</time>
      </trkpt>
      <trkpt lat="45.77607" lon="6.09496">
        <ele>1670.26</ele>
        <time>2015-02-10T13:02:48Z</time>
      </trkpt>
      <trkpt lat="45.77615" lon="6.09507">
        <ele>1673.77</ele>
        <time>2015-02-10T13:03:03Z</time>
      </trkpt>
      <trkpt lat="45.77624" lon="6.09515">
        <ele>1676.82</ele>
        <time>2015-02-10T13:03:18Z</time>
      </trkpt>
      <trkpt lat="45.77634" lon="6.09523">
        <ele>1679.99</ele>
        <time>2015-02-10T13:03:37Z</time>
      </trkpt>
      <trkpt lat="45.77641" lon="6.09529">
        <ele>1681.07</ele>
        <time>2015-02-10T13:03:58Z</time>
      </trkpt>
      <trkpt lat="45.77642" lon="6.09528">
        <ele>1681.58</ele>
        <time>2015-02-10T13:04:20Z</time>
      </trkpt>
      <trkpt lat="45.77639" lon="6.09528">
        <ele>1681.46</ele>
        <time>2015-02-10T13:04:50Z</time>
      </trkpt>
      <trkpt lat="45.77641" lon="6.09527">
        <ele>1681.45</ele>
        <time>2015-02-10T13:05:06Z</time>
      </trkpt>
      <trkpt lat="45.77641" lon="6.09528">
        <ele>1682.79</ele>
        <time>2015-02-10T13:05:29Z</time>
      </trkpt>
      <trkpt lat="45.77642" lon="6.09528">
        <ele>1681.55</ele>
        <time>2015-02-10T13:05:51Z</time>
      </trkpt>
      <trkpt lat="45.77641" lon="6.0953">
        <ele>1681.57</ele>
        <time>2015-02-10T13:06:18Z</time>
      </trkpt>
      <trkpt lat="45.77641" lon="6.09527">
        <ele>1681.8</ele>
        <time>2015-02-10T13:06:43Z</time>
      </trkpt>
      <trkpt lat="45.7764" lon="6.09528">
        <ele>1681.62</ele>
        <time>2015-02-10T13:07:10Z</time>
      </trkpt>
      <trkpt lat="45.7764" lon="6.09527">
        <ele>1681.62</ele>
        <time>2015-02-10T13:07:34Z</time>
      </trkpt>
      <trkpt lat="45.77642" lon="6.09529">
        <ele>1681.61</ele>
        <time>2015-02-10T13:07:58Z</time>
      </trkpt>
      <trkpt lat="45.77642" lon="6.09531">
        <ele>1681.34</ele>
        <time>2015-02-10T13:08:16Z</time>
      </trkpt>
      <trkpt lat="45.77642" lon="6.0953">
        <ele>1681.71</ele>
        <time>2015-02-10T13:08:34Z</time>
      </trkpt>
      <trkpt lat="45.77643" lon="6.09529">
        <ele>1682.22</ele>
        <time>2015-02-10T13:08:57Z</time>
      </trkpt>
      <trkpt lat="45.77643" lon="6.09528">
        <ele>1681.78</ele>
        <time>2015-02-10T13:09:20Z</time>
      </trkpt>
      <trkpt lat="45.77644" lon="6.0953">
        <ele>1681.89</ele>
        <time>2015-02-10T13:09:47Z</time>
      </trkpt>
      <trkpt lat="45.77642" lon="6.09528">
        <ele>1681.71</ele>
        <time>2015-02-10T13:10:11Z</time>
      </trkpt>
      <trkpt lat="45.7764" lon="6.09527">
        <ele>1681.93</ele>
        <time>2015-02-10T13:10:36Z</time>
      </trkpt>
      <trkpt lat="45.77625" lon="6.09516">
        <ele>1681.16</ele>
        <time>2015-02-10T13:10:42Z</time>
      </trkpt>
      <trkpt lat="45.77616" lon="6.09506">
        <ele>1678.57</ele>
        <time>2015-02-10T13:10:44Z</time>
      </trkpt>
      <trkpt lat="45.77599" lon="6.0949">
        <ele>1674.07</ele>
        <time>2015-02-10T13:10:47Z</time>
      </trkpt>
      <trkpt lat="45.77587" lon="6.09475">
        <ele>1669.71</ele>
        <time>2015-02-10T13:10:49Z</time>
      </trkpt>
      <trkpt lat="45.77563" lon="6.09455">
        <ele>1662.55</ele>
        <time>2015-02-10T13:10:52Z</time>
      </trkpt>
      <trkpt lat="45.77554" lon="6.09449">
        <ele>1659.5</ele>
        <time>2015-02-10T13:10:53Z</time>
      </trkpt>
      <trkpt lat="45.77536" lon="6.09431">
        <ele>1655.03</ele>
        <time>2015-02-10T13:10:55Z</time>
      </trkpt>
      <trkpt lat="45.77528" lon="6.0942">
        <ele>1653.18</ele>
        <time>2015-02-10T13:10:56Z</time>
      </trkpt>
      <trkpt lat="45.77514" lon="6.09399">
        <ele>1648.92</ele>
        <time>2015-02-10T13:10:58Z</time>
      </trkpt>
      <trkpt lat="45.77493" lon="6.09352">
        <ele>1642.78</ele>
        <time>2015-02-10T13:11:02Z</time>
      </trkpt>
      <trkpt lat="45.77484" lon="6.09331">
        <ele>1640.11</ele>
        <time>2015-02-10T13:11:04Z</time>
      </trkpt>
      <trkpt lat="45.7747" lon="6.09292">
        <ele>1635.37</ele>
        <time>2015-02-10T13:11:08Z</time>
      </trkpt>
      <trkpt lat="45.77463" lon="6.09283">
        <ele>1634.39</ele>
        <time>2015-02-10T13:11:10Z</time>
      </trkpt>
      <trkpt lat="45.77454" lon="6.09267">
        <ele>1635.5</ele>
        <time>2015-02-10T13:11:20Z</time>
      </trkpt>
      <trkpt lat="45.77452" lon="6.09233">
        <ele>1635.74</ele>
        <time>2015-02-10T13:11:32Z</time>
      </trkpt>
      <trkpt lat="45.77454" lon="6.09201">
        <ele>1635.06</ele>
        <time>2015-02-10T13:11:41Z</time>
      </trkpt>
      <trkpt lat="45.77454" lon="6.09166">
        <ele>1632.5</ele>
        <time>2015-02-10T13:11:48Z</time>
      </trkpt>
      <trkpt lat="45.77454" lon="6.09142">
        <ele>1632.04</ele>
        <time>2015-02-10T13:11:57Z</time>
      </trkpt>
      <trkpt lat="45.77455" lon="6.0914">
        <ele>1632.1</ele>
        <time>2015-02-10T13:11:59Z</time>
      </trkpt>
      <trkpt lat="45.77461" lon="6.09108">
        <ele>1630.22</ele>
        <time>2015-02-10T13:12:07Z</time>
      </trkpt>
      <trkpt lat="45.77465" lon="6.09067">
        <ele>1625.94</ele>
        <time>2015-02-10T13:12:12Z</time>
      </trkpt>
      <trkpt lat="45.77469" lon="6.09015">
        <ele>1622.36</ele>
        <time>2015-02-10T13:12:21Z</time>
      </trkpt>
      <trkpt lat="45.77469" lon="6.08971">
        <ele>1617.84</ele>
        <time>2015-02-10T13:12:26Z</time>
      </trkpt>
      <trkpt lat="45.77468" lon="6.08938">
        <ele>1613.62</ele>
        <time>2015-02-10T13:12:29Z</time>
      </trkpt>
      <trkpt lat="45.77465" lon="6.08915">
        <ele>1611.01</ele>
        <time>2015-02-10T13:12:31Z</time>
      </trkpt>
      <trkpt lat="45.77452" lon="6.08874">
        <ele>1605.58</ele>
        <time>2015-02-10T13:12:35Z</time>
      </trkpt>
      <trkpt lat="45.77448" lon="6.08864">
        <ele>1604.63</ele>
        <time>2015-02-10T13:12:36Z</time>
      </trkpt>
      <trkpt lat="45.77439" lon="6.08838">
        <ele>1600.86</ele>
        <time>2015-02-10T13:12:39Z</time>
      </trkpt>
      <trkpt lat="45.77421" lon="6.08798">
        <ele>1595.98</ele>
        <time>2015-02-10T13:12:44Z</time>
      </trkpt>
      <trkpt lat="45.77408" lon="6.08775">
        <ele>1592.29</ele>
        <time>2015-02-10T13:12:47Z</time>
      </trkpt>
      <trkpt lat="45.7739" lon="6.08745">
        <ele>1588.67</ele>
        <time>2015-02-10T13:12:51Z</time>
      </trkpt>
      <trkpt lat="45.77381" lon="6.08729">
        <ele>1586.87</ele>
        <time>2015-02-10T13:12:53Z</time>
      </trkpt>
      <trkpt lat="45.77364" lon="6.08708">
        <ele>1582.85</ele>
        <time>2015-02-10T13:12:56Z</time>
      </trkpt>
      <trkpt lat="45.77359" lon="6.08701">
        <ele>1581.49</ele>
        <time>2015-02-10T13:12:57Z</time>
      </trkpt>
      <trkpt lat="45.77334" lon="6.08676">
        <ele>1576.45</ele>
        <time>2015-02-10T13:13:01Z</time>
      </trkpt>
      <trkpt lat="45.7732" lon="6.08666">
        <ele>1573.17</ele>
        <time>2015-02-10T13:13:03Z</time>
      </trkpt>
      <trkpt lat="45.77307" lon="6.08656">
        <ele>1570.29</ele>
        <time>2015-02-10T13:13:05Z</time>
      </trkpt>
      <trkpt lat="45.77291" lon="6.08646">
        <ele>1567.91</ele>
        <time>2015-02-10T13:13:08Z</time>
      </trkpt>
      <trkpt lat="45.7727" lon="6.08616">
        <ele>1563.53</ele>
        <time>2015-02-10T13:13:14Z</time>
      </trkpt>
      <trkpt lat="45.77262" lon="6.08608">
        <ele>1561.31</ele>
        <time>2015-02-10T13:13:17Z</time>
      </trkpt>
      <trkpt lat="45.77257" lon="6.08601">
        <ele>1560.63</ele>
        <time>2015-02-10T13:13:19Z</time>
      </trkpt>
      <trkpt lat="45.77254" lon="6.08597">
        <ele>1560.32</ele>
        <time>2015-02-10T13:13:20Z</time>
      </trkpt>
      <trkpt lat="45.77236" lon="6.08587">
        <ele>1557.91</ele>
        <time>2015-02-10T13:13:24Z</time>
      </trkpt>
      <trkpt lat="45.77221" lon="6.08578">
        <ele>1554.75</ele>
        <time>2015-02-10T13:13:27Z</time>
      </trkpt>
      <trkpt lat="45.77205" lon="6.08572">
        <ele>1550.17</ele>
        <time>2015-02-10T13:13:30Z</time>
      </trkpt>
      <trkpt lat="45.77193" lon="6.08565">
        <ele>1546.81</ele>
        <time>2015-02-10T13:13:32Z</time>
      </trkpt>
      <trkpt lat="45.77182" lon="6.08566">
        <ele>1543.22</ele>
        <time>2015-02-10T13:13:34Z</time>
      </trkpt>
      <trkpt lat="45.77176" lon="6.08568">
        <ele>1541.67</ele>
        <time>2015-02-10T13:13:35Z</time>
      </trkpt>
      <trkpt lat="45.77154" lon="6.08579">
        <ele>1536.47</ele>
        <time>2015-02-10T13:13:39Z</time>
      </trkpt>
      <trkpt lat="45.7713" lon="6.08588">
        <ele>1532.36</ele>
        <time>2015-02-10T13:13:43Z</time>
      </trkpt>
      <trkpt lat="45.77102" lon="6.08596">
        <ele>1525.22</ele>
        <time>2015-02-10T13:13:48Z</time>
      </trkpt>
      <trkpt lat="45.77086" lon="6.08601">
        <ele>1521.86</ele>
        <time>2015-02-10T13:13:51Z</time>
      </trkpt>
      <trkpt lat="45.77073" lon="6.08606">
        <ele>1519.52</ele>
        <time>2015-02-10T13:13:53Z</time>
      </trkpt>
      <trkpt lat="45.77057" lon="6.08602">
        <ele>1516.32</ele>
        <time>2015-02-10T13:13:57Z</time>
      </trkpt>
      <trkpt lat="45.77055" lon="6.08606">
        <ele>1515.94</ele>
        <time>2015-02-10T13:14:06Z</time>
      </trkpt>
      <trkpt lat="45.77055" lon="6.08607">
        <ele>1516.28</ele>
        <time>2015-02-10T13:14:11Z</time>
      </trkpt>
      <trkpt lat="45.77051" lon="6.08611">
        <ele>1515.29</ele>
        <time>2015-02-10T13:14:25Z</time>
      </trkpt>
      <trkpt lat="45.77029" lon="6.08598">
        <ele>1513.12</ele>
        <time>2015-02-10T13:14:35Z</time>
      </trkpt>
      <trkpt lat="45.77025" lon="6.08595">
        <ele>1512.8</ele>
        <time>2015-02-10T13:14:36Z</time>
      </trkpt>
      <trkpt lat="45.77011" lon="6.08578">
        <ele>1509.3</ele>
        <time>2015-02-10T13:14:40Z</time>
      </trkpt>
      <trkpt lat="45.77004" lon="6.08571">
        <ele>1506.07</ele>
        <time>2015-02-10T13:14:42Z</time>
      </trkpt>
      <trkpt lat="45.76993" lon="6.08566">
        <ele>1500.58</ele>
        <time>2015-02-10T13:14:46Z</time>
      </trkpt>
      <trkpt lat="45.76993" lon="6.08567">
        <ele>1499.82</ele>
        <time>2015-02-10T13:14:48Z</time>
      </trkpt>
      <trkpt lat="45.76992" lon="6.08571">
        <ele>1499.12</ele>
        <time>2015-02-10T13:15:04Z</time>
      </trkpt>
      <trkpt lat="45.7699" lon="6.08569">
        <ele>1499.04</ele>
        <time>2015-02-10T13:15:27Z</time>
      </trkpt>
      <trkpt lat="45.76993" lon="6.0857">
        <ele>1499.38</ele>
        <time>2015-02-10T13:15:57Z</time>
      </trkpt>
      <trkpt lat="45.76993" lon="6.08572">
        <ele>1499.31</ele>
        <time>2015-02-10T13:16:24Z</time>
      </trkpt>
      <trkpt lat="45.76991" lon="6.0856">
        <ele>1496.13</ele>
        <time>2015-02-10T13:16:40Z</time>
      </trkpt>
      <trkpt lat="45.7699" lon="6.08558">
        <ele>1494.87</ele>
        <time>2015-02-10T13:16:44Z</time>
      </trkpt>
      <trkpt lat="45.76984" lon="6.08556">
        <ele>1493</ele>
        <time>2015-02-10T13:16:48Z</time>
      </trkpt>
      <trkpt lat="45.76988" lon="6.0855">
        <ele>1491.2</ele>
        <time>2015-02-10T13:17:05Z</time>
      </trkpt>
      <trkpt lat="45.76991" lon="6.08549">
        <ele>1487.82</ele>
        <time>2015-02-10T13:17:10Z</time>
      </trkpt>
      <trkpt lat="45.76991" lon="6.08549">
        <ele>1487.58</ele>
        <time>2015-02-10T13:17:11Z</time>
      </trkpt>
      <trkpt lat="45.76993" lon="6.08549">
        <ele>1487.65</ele>
        <time>2015-02-10T13:17:33Z</time>
      </trkpt>
      <trkpt lat="45.76995" lon="6.08544">
        <ele>1487.48</ele>
        <time>2015-02-10T13:17:51Z</time>
      </trkpt>
      <trkpt lat="45.76994" lon="6.08529">
        <ele>1482.86</ele>
        <time>2015-02-10T13:17:54Z</time>
      </trkpt>
      <trkpt lat="45.76993" lon="6.0852">
        <ele>1478.36</ele>
        <time>2015-02-10T13:17:56Z</time>
      </trkpt>
      <trkpt lat="45.76987" lon="6.08514">
        <ele>1475.07</ele>
        <time>2015-02-10T13:17:58Z</time>
      </trkpt>
      <trkpt lat="45.7698" lon="6.08509">
        <ele>1473.02</ele>
        <time>2015-02-10T13:18:00Z</time>
      </trkpt>
      <trkpt lat="45.76965" lon="6.085">
        <ele>1469.42</ele>
        <time>2015-02-10T13:18:04Z</time>
      </trkpt>
      <trkpt lat="45.76956" lon="6.08482">
        <ele>1464.53</ele>
        <time>2015-02-10T13:18:08Z</time>
      </trkpt>
      <trkpt lat="45.7696" lon="6.08471">
        <ele>1460.3</ele>
        <time>2015-02-10T13:18:10Z</time>
      </trkpt>
      <trkpt lat="45.76965" lon="6.08465">
        <ele>1456.75</ele>
        <time>2015-02-10T13:18:13Z</time>
      </trkpt>
      <trkpt lat="45.76958" lon="6.08452">
        <ele>1452.35</ele>
        <time>2015-02-10T13:18:16Z</time>
      </trkpt>
      <trkpt lat="45.76948" lon="6.08441">
        <ele>1449.11</ele>
        <time>2015-02-10T13:18:18Z</time>
      </trkpt>
      <trkpt lat="45.76931" lon="6.08429">
        <ele>1442.7</ele>
        <time>2015-02-10T13:18:21Z</time>
      </trkpt>
      <trkpt lat="45.76932" lon="6.08415">
        <ele>1438.55</ele>
        <time>2015-02-10T13:18:23Z</time>
      </trkpt>
      <trkpt lat="45.76937" lon="6.08408">
        <ele>1435.11</ele>
        <time>2015-02-10T13:18:25Z</time>
      </trkpt>
      <trkpt lat="45.76943" lon="6.0841">
        <ele>1433.38</ele>
        <time>2015-02-10T13:18:27Z</time>
      </trkpt>
      <trkpt lat="45.76948" lon="6.08413">
        <ele>1430.82</ele>
        <time>2015-02-10T13:18:31Z</time>
      </trkpt>
      <trkpt lat="45.76949" lon="6.08413">
        <ele>1430.98</ele>
        <time>2015-02-10T13:18:33Z</time>
      </trkpt>
      <trkpt lat="45.76951" lon="6.08409">
        <ele>1430.73</ele>
        <time>2015-02-10T13:18:40Z</time>
      </trkpt>
      <trkpt lat="45.76962" lon="6.08401">
        <ele>1426.98</ele>
        <time>2015-02-10T13:18:43Z</time>
      </trkpt>
      <trkpt lat="45.76965" lon="6.084">
        <ele>1425.52</ele>
        <time>2015-02-10T13:18:44Z</time>
      </trkpt>
      <trkpt lat="45.76971" lon="6.084">
        <ele>1422.2</ele>
        <time>2015-02-10T13:18:51Z</time>
      </trkpt>
      <trkpt lat="45.76965" lon="6.08383">
        <ele>1416.41</ele>
        <time>2015-02-10T13:18:55Z</time>
      </trkpt>
      <trkpt lat="45.76957" lon="6.08366">
        <ele>1408.33</ele>
        <time>2015-02-10T13:18:58Z</time>
      </trkpt>
      <trkpt lat="45.76951" lon="6.08358">
        <ele>1403.3</ele>
        <time>2015-02-10T13:19:00Z</time>
      </trkpt>
      <trkpt lat="45.76943" lon="6.08348">
        <ele>1399.86</ele>
        <time>2015-02-10T13:19:03Z</time>
      </trkpt>
      <trkpt lat="45.76941" lon="6.08337">
        <ele>1396.17</ele>
        <time>2015-02-10T13:19:05Z</time>
      </trkpt>
      <trkpt lat="45.76934" lon="6.08321">
        <ele>1391.57</ele>
        <time>2015-02-10T13:19:07Z</time>
      </trkpt>
      <trkpt lat="45.7693" lon="6.08313">
        <ele>1387.78</ele>
        <time>2015-02-10T13:19:08Z</time>
      </trkpt>
      <trkpt lat="45.7693" lon="6.08308">
        <ele>1382.83</ele>
        <time>2015-02-10T13:19:09Z</time>
      </trkpt>
      <trkpt lat="45.7693" lon="6.083">
        <ele>1379.68</ele>
        <time>2015-02-10T13:19:10Z</time>
      </trkpt>
      <trkpt lat="45.76928" lon="6.08294">
        <ele>1375.7</ele>
        <time>2015-02-10T13:19:11Z</time>
      </trkpt>
      <trkpt lat="45.76926" lon="6.08289">
        <ele>1372.3</ele>
        <time>2015-02-10T13:19:12Z</time>
      </trkpt>
      <trkpt lat="45.76918" lon="6.08281">
        <ele>1367.39</ele>
        <time>2015-02-10T13:19:14Z</time>
      </trkpt>
      <trkpt lat="45.7692" lon="6.08269">
        <ele>1361.84</ele>
        <time>2015-02-10T13:19:16Z</time>
      </trkpt>
      <trkpt lat="45.76922" lon="6.08259">
        <ele>1356.83</ele>
        <time>2015-02-10T13:19:18Z</time>
      </trkpt>
      <trkpt lat="45.76916" lon="6.08253">
        <ele>1352.04</ele>
        <time>2015-02-10T13:19:20Z</time>
      </trkpt>
      <trkpt lat="45.76911" lon="6.08245">
        <ele>1348.75</ele>
        <time>2015-02-10T13:19:22Z</time>
      </trkpt>
      <trkpt lat="45.76919" lon="6.08241">
        <ele>1344.59</ele>
        <time>2015-02-10T13:19:24Z</time>
      </trkpt>
      <trkpt lat="45.76924" lon="6.08239">
        <ele>1340.49</ele>
        <time>2015-02-10T13:19:27Z</time>
      </trkpt>
      <trkpt lat="45.76925" lon="6.0824">
        <ele>1338.25</ele>
        <time>2015-02-10T13:19:31Z</time>
      </trkpt>
      <trkpt lat="45.76925" lon="6.0824">
        <ele>1338.33</ele>
        <time>2015-02-10T13:19:35Z</time>
      </trkpt>
      <trkpt lat="45.76934" lon="6.08232">
        <ele>1335</ele>
        <time>2015-02-10T13:19:40Z</time>
      </trkpt>
      <trkpt lat="45.76937" lon="6.08231">
        <ele>1333.35</ele>
        <time>2015-02-10T13:19:45Z</time>
      </trkpt>
      <trkpt lat="45.7693" lon="6.08217">
        <ele>1330.81</ele>
        <time>2015-02-10T13:19:49Z</time>
      </trkpt>
      <trkpt lat="45.76923" lon="6.08196">
        <ele>1327.05</ele>
        <time>2015-02-10T13:19:51Z</time>
      </trkpt>
      <trkpt lat="45.76911" lon="6.08171">
        <ele>1322.05</ele>
        <time>2015-02-10T13:19:57Z</time>
      </trkpt>
      <trkpt lat="45.76911" lon="6.08156">
        <ele>1318.96</ele>
        <time>2015-02-10T13:20:05Z</time>
      </trkpt>
      <trkpt lat="45.76911" lon="6.08151">
        <ele>1316.43</ele>
        <time>2015-02-10T13:20:09Z</time>
      </trkpt>
      <trkpt lat="45.76902" lon="6.08138">
        <ele>1310.57</ele>
        <time>2015-02-10T13:20:14Z</time>
      </trkpt>
      <trkpt lat="45.76897" lon="6.08134">
        <ele>1307.04</ele>
        <time>2015-02-10T13:20:16Z</time>
      </trkpt>
      <trkpt lat="45.76897" lon="6.08132">
        <ele>1304.12</ele>
        <time>2015-02-10T13:20:20Z</time>
      </trkpt>
      <trkpt lat="45.76895" lon="6.08132">
        <ele>1303.33</ele>
        <time>2015-02-10T13:20:25Z</time>
      </trkpt>
      <trkpt lat="45.76892" lon="6.08125">
        <ele>1300.72</ele>
        <time>2015-02-10T13:20:30Z</time>
      </trkpt>
      <trkpt lat="45.76894" lon="6.0812">
        <ele>1298.6</ele>
        <time>2015-02-10T13:20:35Z</time>
      </trkpt>
      <trkpt lat="45.76896" lon="6.08098">
        <ele>1293.92</ele>
        <time>2015-02-10T13:20:40Z</time>
      </trkpt>
      <trkpt lat="45.76908" lon="6.08092">
        <ele>1289.87</ele>
        <time>2015-02-10T13:20:43Z</time>
      </trkpt>
      <trkpt lat="45.76914" lon="6.08091">
        <ele>1288.31</ele>
        <time>2015-02-10T13:20:44Z</time>
      </trkpt>
      <trkpt lat="45.76924" lon="6.08089">
        <ele>1283.38</ele>
        <time>2015-02-10T13:20:53Z</time>
      </trkpt>
      <trkpt lat="45.76925" lon="6.08088">
        <ele>1283.32</ele>
        <time>2015-02-10T13:21:01Z</time>
      </trkpt>
      <trkpt lat="45.76929" lon="6.08089">
        <ele>1283.01</ele>
        <time>2015-02-10T13:21:20Z</time>
      </trkpt>
      <trkpt lat="45.76929" lon="6.08086">
        <ele>1283.16</ele>
        <time>2015-02-10T13:21:36Z</time>
      </trkpt>
      <trkpt lat="45.7693" lon="6.08082">
        <ele>1280.5</ele>
        <time>2015-02-10T13:21:41Z</time>
      </trkpt>
      <trkpt lat="45.76929" lon="6.08081">
        <ele>1280.28</ele>
        <time>2015-02-10T13:21:43Z</time>
      </trkpt>
      <trkpt lat="45.7693" lon="6.08068">
        <ele>1276.24</ele>
        <time>2015-02-10T13:21:47Z</time>
      </trkpt>
      <trkpt lat="45.7693" lon="6.08066">
        <ele>1274.87</ele>
        <time>2015-02-10T13:21:49Z</time>
      </trkpt>
      <trkpt lat="45.76926" lon="6.08054">
        <ele>1270.97</ele>
        <time>2015-02-10T13:21:53Z</time>
      </trkpt>
      <trkpt lat="45.76928" lon="6.08054">
        <ele>1267.91</ele>
        <time>2015-02-10T13:21:58Z</time>
      </trkpt>
      <trkpt lat="45.76936" lon="6.0803">
        <ele>1264.25</ele>
        <time>2015-02-10T13:22:04Z</time>
      </trkpt>
      <trkpt lat="45.76939" lon="6.08016">
        <ele>1261.01</ele>
        <time>2015-02-10T13:22:07Z</time>
      </trkpt>
      <trkpt lat="45.76949" lon="6.07992">
        <ele>1256.33</ele>
        <time>2015-02-10T13:22:14Z</time>
      </trkpt>
      <trkpt lat="45.76946" lon="6.0798">
        <ele>1254.71</ele>
        <time>2015-02-10T13:22:16Z</time>
      </trkpt>
      <trkpt lat="45.76946" lon="6.07958">
        <ele>1249.61</ele>
        <time>2015-02-10T13:22:20Z</time>
      </trkpt>
      <trkpt lat="45.76946" lon="6.07954">
        <ele>1248.01</ele>
        <time>2015-02-10T13:22:23Z</time>
      </trkpt>
      <trkpt lat="45.76946" lon="6.07948">
        <ele>1247.56</ele>
        <time>2015-02-10T13:22:45Z</time>
      </trkpt>
      <trkpt lat="45.76938" lon="6.07933">
        <ele>1242.52</ele>
        <time>2015-02-10T13:22:49Z</time>
      </trkpt>
      <trkpt lat="45.76932" lon="6.07925">
        <ele>1238.99</ele>
        <time>2015-02-10T13:22:51Z</time>
      </trkpt>
      <trkpt lat="45.76923" lon="6.07926">
        <ele>1234.17</ele>
        <time>2015-02-10T13:22:53Z</time>
      </trkpt>
      <trkpt lat="45.76911" lon="6.07916">
        <ele>1228.82</ele>
        <time>2015-02-10T13:22:56Z</time>
      </trkpt>
      <trkpt lat="45.76895" lon="6.07904">
        <ele>1219.92</ele>
        <time>2015-02-10T13:23:00Z</time>
      </trkpt>
      <trkpt lat="45.76886" lon="6.07906">
        <ele>1216.91</ele>
        <time>2015-02-10T13:23:01Z</time>
      </trkpt>
      <trkpt lat="45.76878" lon="6.0791">
        <ele>1213.34</ele>
        <time>2015-02-10T13:23:02Z</time>
      </trkpt>
      <trkpt lat="45.76866" lon="6.0792">
        <ele>1209.67</ele>
        <time>2015-02-10T13:23:04Z</time>
      </trkpt>
      <trkpt lat="45.76856" lon="6.07923">
        <ele>1205.81</ele>
        <time>2015-02-10T13:23:07Z</time>
      </trkpt>
      <trkpt lat="45.76849" lon="6.07908">
        <ele>1201.6</ele>
        <time>2015-02-10T13:23:09Z</time>
      </trkpt>
      <trkpt lat="45.76829" lon="6.07901">
        <ele>1192.33</ele>
        <time>2015-02-10T13:23:14Z</time>
      </trkpt>
      <trkpt lat="45.76825" lon="6.07901">
        <ele>1189.29</ele>
        <time>2015-02-10T13:23:16Z</time>
      </trkpt>
      <trkpt lat="45.76826" lon="6.07901">
        <ele>1188.27</ele>
        <time>2015-02-10T13:23:18Z</time>
      </trkpt>
      <trkpt lat="45.76827" lon="6.07904">
        <ele>1187.61</ele>
        <time>2015-02-10T13:23:21Z</time>
      </trkpt>
      <trkpt lat="45.76817" lon="6.07928">
        <ele>1183.94</ele>
        <time>2015-02-10T13:23:26Z</time>
      </trkpt>
      <trkpt lat="45.7681" lon="6.07944">
        <ele>1181.29</ele>
        <time>2015-02-10T13:23:28Z</time>
      </trkpt>
      <trkpt lat="45.76792" lon="6.07959">
        <ele>1176.08</ele>
        <time>2015-02-10T13:23:32Z</time>
      </trkpt>
      <trkpt lat="45.76788" lon="6.07962">
        <ele>1175.28</ele>
        <time>2015-02-10T13:23:34Z</time>
      </trkpt>
      <trkpt lat="45.7679" lon="6.07966">
        <ele>1174.9</ele>
        <time>2015-02-10T13:23:45Z</time>
      </trkpt>
      <trkpt lat="45.76787" lon="6.07966">
        <ele>1173.84</ele>
        <time>2015-02-10T13:23:46Z</time>
      </trkpt>
      <trkpt lat="45.76779" lon="6.07966">
        <ele>1168.01</ele>
        <time>2015-02-10T13:23:50Z</time>
      </trkpt>
      <trkpt lat="45.76776" lon="6.07971">
        <ele>1165.58</ele>
        <time>2015-02-10T13:23:52Z</time>
      </trkpt>
      <trkpt lat="45.7677" lon="6.07975">
        <ele>1162.35</ele>
        <time>2015-02-10T13:23:54Z</time>
      </trkpt>
      <trkpt lat="45.76763" lon="6.0797">
        <ele>1157.66</ele>
        <time>2015-02-10T13:23:57Z</time>
      </trkpt>
      <trkpt lat="45.7675" lon="6.07972">
        <ele>1154.79</ele>
        <time>2015-02-10T13:24:04Z</time>
      </trkpt>
      <trkpt lat="45.76747" lon="6.07985">
        <ele>1149.98</ele>
        <time>2015-02-10T13:24:08Z</time>
      </trkpt>
      <trkpt lat="45.76737" lon="6.07989">
        <ele>1145.44</ele>
        <time>2015-02-10T13:24:11Z</time>
      </trkpt>
      <trkpt lat="45.76732" lon="6.07993">
        <ele>1140.63</ele>
        <time>2015-02-10T13:24:13Z</time>
      </trkpt>
      <trkpt lat="45.76734" lon="6.07999">
        <ele>1137.33</ele>
        <time>2015-02-10T13:24:16Z</time>
      </trkpt>
      <trkpt lat="45.76737" lon="6.08009">
        <ele>1136.4</ele>
        <time>2015-02-10T13:24:29Z</time>
      </trkpt>
      <trkpt lat="45.7674" lon="6.08004">
        <ele>1136.43</ele>
        <time>2015-02-10T13:24:45Z</time>
      </trkpt>
      <trkpt lat="45.76737" lon="6.08005">
        <ele>1136.66</ele>
        <time>2015-02-10T13:24:50Z</time>
      </trkpt>
      <trkpt lat="45.76732" lon="6.0801">
        <ele>1135.79</ele>
        <time>2015-02-10T13:24:54Z</time>
      </trkpt>
      <trkpt lat="45.76723" lon="6.08021">
        <ele>1132.01</ele>
        <time>2015-02-10T13:24:59Z</time>
      </trkpt>
      <trkpt lat="45.76716" lon="6.08024">
        <ele>1126.6</ele>
        <time>2015-02-10T13:25:03Z</time>
      </trkpt>
      <trkpt lat="45.76715" lon="6.08026">
        <ele>1125.09</ele>
        <time>2015-02-10T13:25:05Z</time>
      </trkpt>
      <trkpt lat="45.76706" lon="6.08035">
        <ele>1120.93</ele>
        <time>2015-02-10T13:25:09Z</time>
      </trkpt>
      <trkpt lat="45.76695" lon="6.08046">
        <ele>1114.99</ele>
        <time>2015-02-10T13:25:11Z</time>
      </trkpt>
      <trkpt lat="45.76685" lon="6.08059">
        <ele>1110.56</ele>
        <time>2015-02-10T13:25:13Z</time>
      </trkpt>
      <trkpt lat="45.76666" lon="6.0807">
        <ele>1106.27</ele>
        <time>2015-02-10T13:25:17Z</time>
      </trkpt>
      <trkpt lat="45.76662" lon="6.08071">
        <ele>1105.39</ele>
        <time>2015-02-10T13:25:18Z</time>
      </trkpt>
      <trkpt lat="45.76642" lon="6.08053">
        <ele>1100.59</ele>
        <time>2015-02-10T13:25:22Z</time>
      </trkpt>
      <trkpt lat="45.76631" lon="6.08038">
        <ele>1097.39</ele>
        <time>2015-02-10T13:25:24Z</time>
      </trkpt>
      <trkpt lat="45.76623" lon="6.08032">
        <ele>1096.1</ele>
        <time>2015-02-10T13:25:27Z</time>
      </trkpt>
      <trkpt lat="45.7662" lon="6.08032">
        <ele>1094.78</ele>
        <time>2015-02-10T13:25:30Z</time>
      </trkpt>
      <trkpt lat="45.76616" lon="6.08032">
        <ele>1094.47</ele>
        <time>2015-02-10T13:25:33Z</time>
      </trkpt>
      <trkpt lat="45.76608" lon="6.08028">
        <ele>1090.92</ele>
        <time>2015-02-10T13:25:39Z</time>
      </trkpt>
      <trkpt lat="45.76607" lon="6.08029">
        <ele>1090.27</ele>
        <time>2015-02-10T13:25:41Z</time>
      </trkpt>
      <trkpt lat="45.76607" lon="6.08031">
        <ele>1089.96</ele>
        <time>2015-02-10T13:25:43Z</time>
      </trkpt>
      <trkpt lat="45.76601" lon="6.08034">
        <ele>1088.21</ele>
        <time>2015-02-10T13:25:50Z</time>
      </trkpt>
      <trkpt lat="45.76598" lon="6.08024">
        <ele>1085.69</ele>
        <time>2015-02-10T13:25:54Z</time>
      </trkpt>
      <trkpt lat="45.76596" lon="6.07999">
        <ele>1079.96</ele>
        <time>2015-02-10T13:25:57Z</time>
      </trkpt>
      <trkpt lat="45.7659" lon="6.07997">
        <ele>1076.75</ele>
        <time>2015-02-10T13:26:01Z</time>
      </trkpt>
      <trkpt lat="45.76589" lon="6.07995">
        <ele>1076.72</ele>
        <time>2015-02-10T13:26:02Z</time>
      </trkpt>
      <trkpt lat="45.76585" lon="6.07981">
        <ele>1073.55</ele>
        <time>2015-02-10T13:26:06Z</time>
      </trkpt>
      <trkpt lat="45.76578" lon="6.07973">
        <ele>1070.05</ele>
        <time>2015-02-10T13:26:09Z</time>
      </trkpt>
      <trkpt lat="45.76563" lon="6.07952">
        <ele>1065.4</ele>
        <time>2015-02-10T13:26:14Z</time>
      </trkpt>
      <trkpt lat="45.76555" lon="6.07938">
        <ele>1062.31</ele>
        <time>2015-02-10T13:26:17Z</time>
      </trkpt>
      <trkpt lat="45.76548" lon="6.07926">
        <ele>1060.61</ele>
        <time>2015-02-10T13:26:19Z</time>
      </trkpt>
      <trkpt lat="45.76522" lon="6.07905">
        <ele>1055.51</ele>
        <time>2015-02-10T13:26:24Z</time>
      </trkpt>
      <trkpt lat="45.76518" lon="6.07899">
        <ele>1054.29</ele>
        <time>2015-02-10T13:26:25Z</time>
      </trkpt>
      <trkpt lat="45.76507" lon="6.0788">
        <ele>1050.54</ele>
        <time>2015-02-10T13:26:28Z</time>
      </trkpt>
      <trkpt lat="45.76485" lon="6.07874">
        <ele>1046.1</ele>
        <time>2015-02-10T13:26:32Z</time>
      </trkpt>
      <trkpt lat="45.76467" lon="6.07871">
        <ele>1042.58</ele>
        <time>2015-02-10T13:26:35Z</time>
      </trkpt>
      <trkpt lat="45.76458" lon="6.07866">
        <ele>1038.73</ele>
        <time>2015-02-10T13:26:43Z</time>
      </trkpt>
      <trkpt lat="45.76444" lon="6.0786">
        <ele>1034.43</ele>
        <time>2015-02-10T13:26:48Z</time>
      </trkpt>
      <trkpt lat="45.76437" lon="6.07858">
        <ele>1031.74</ele>
        <time>2015-02-10T13:26:50Z</time>
      </trkpt>
      <trkpt lat="45.7642" lon="6.07853">
        <ele>1026.2</ele>
        <time>2015-02-10T13:26:54Z</time>
      </trkpt>
      <trkpt lat="45.76407" lon="6.07852">
        <ele>1023.89</ele>
        <time>2015-02-10T13:26:56Z</time>
      </trkpt>
      <trkpt lat="45.76385" lon="6.07839">
        <ele>1018.57</ele>
        <time>2015-02-10T13:26:59Z</time>
      </trkpt>
      <trkpt lat="45.76374" lon="6.07817">
        <ele>1014.85</ele>
        <time>2015-02-10T13:27:02Z</time>
      </trkpt>
      <trkpt lat="45.76366" lon="6.07803">
        <ele>1013.55</ele>
        <time>2015-02-10T13:27:05Z</time>
      </trkpt>
      <trkpt lat="45.76348" lon="6.07804">
        <ele>1009.45</ele>
        <time>2015-02-10T13:27:11Z</time>
      </trkpt>
      <trkpt lat="45.76344" lon="6.07805">
        <ele>1008.47</ele>
        <time>2015-02-10T13:27:12Z</time>
      </trkpt>
      <trkpt lat="45.76338" lon="6.07807">
        <ele>1005.43</ele>
        <time>2015-02-10T13:27:16Z</time>
      </trkpt>
      <trkpt lat="45.76334" lon="6.07806">
        <ele>1005.28</ele>
        <time>2015-02-10T13:27:20Z</time>
      </trkpt>
      <trkpt lat="45.76327" lon="6.07799">
        <ele>1004.57</ele>
        <time>2015-02-10T13:27:23Z</time>
      </trkpt>
      <trkpt lat="45.76326" lon="6.07797">
        <ele>1001.82</ele>
        <time>2015-02-10T13:27:35Z</time>
      </trkpt>
      <trkpt lat="45.76325" lon="6.07801">
        <ele>1001.99</ele>
        <time>2015-02-10T13:27:44Z</time>
      </trkpt>
      <trkpt lat="45.76315" lon="6.07807">
        <ele>998.18</ele>
        <time>2015-02-10T13:27:48Z</time>
      </trkpt>
      <trkpt lat="45.76303" lon="6.07805">
        <ele>995.09</ele>
        <time>2015-02-10T13:27:50Z</time>
      </trkpt>
      <trkpt lat="45.76296" lon="6.07801">
        <ele>991.24</ele>
        <time>2015-02-10T13:27:52Z</time>
      </trkpt>
      <trkpt lat="45.76286" lon="6.07799">
        <ele>987.31</ele>
        <time>2015-02-10T13:27:54Z</time>
      </trkpt>
      <trkpt lat="45.76275" lon="6.07793">
        <ele>983.47</ele>
        <time>2015-02-10T13:27:56Z</time>
      </trkpt>
      <trkpt lat="45.76268" lon="6.07782">
        <ele>981.17</ele>
        <time>2015-02-10T13:27:57Z</time>
      </trkpt>
      <trkpt lat="45.76249" lon="6.07756">
        <ele>973.59</ele>
        <time>2015-02-10T13:28:00Z</time>
      </trkpt>
      <trkpt lat="45.7624" lon="6.07747">
        <ele>971.5</ele>
        <time>2015-02-10T13:28:03Z</time>
      </trkpt>
      <trkpt lat="45.76238" lon="6.07748">
        <ele>971.34</ele>
        <time>2015-02-10T13:28:04Z</time>
      </trkpt>
      <trkpt lat="45.76221" lon="6.07747">
        <ele>967.37</ele>
        <time>2015-02-10T13:28:08Z</time>
      </trkpt>
      <trkpt lat="45.76196" lon="6.07744">
        <ele>964.16</ele>
        <time>2015-02-10T13:28:15Z</time>
      </trkpt>
      <trkpt lat="45.76172" lon="6.07751">
        <ele>960.9</ele>
        <time>2015-02-10T13:28:22Z</time>
      </trkpt>
      <trkpt lat="45.76168" lon="6.07751">
        <ele>960.21</ele>
        <time>2015-02-10T13:28:23Z</time>
      </trkpt>
      <trkpt lat="45.76156" lon="6.07745">
        <ele>958.04</ele>
        <time>2015-02-10T13:28:26Z</time>
      </trkpt>
      <trkpt lat="45.76132" lon="6.07749">
        <ele>952.41</ele>
        <time>2015-02-10T13:28:30Z</time>
      </trkpt>
      <trkpt lat="45.76119" lon="6.07752">
        <ele>950.48</ele>
        <time>2015-02-10T13:28:32Z</time>
      </trkpt>
      <trkpt lat="45.76099" lon="6.07746">
        <ele>944.66</ele>
        <time>2015-02-10T13:28:36Z</time>
      </trkpt>
      <trkpt lat="45.76092" lon="6.0774">
        <ele>941.35</ele>
        <time>2015-02-10T13:28:38Z</time>
      </trkpt>
      <trkpt lat="45.76089" lon="6.07741">
        <ele>939.16</ele>
        <time>2015-02-10T13:28:41Z</time>
      </trkpt>
      <trkpt lat="45.76088" lon="6.07744">
        <ele>939.14</ele>
        <time>2015-02-10T13:28:43Z</time>
      </trkpt>
      <trkpt lat="45.76076" lon="6.07751">
        <ele>935.95</ele>
        <time>2015-02-10T13:28:48Z</time>
      </trkpt>
      <trkpt lat="45.76061" lon="6.0774">
        <ele>928.83</ele>
        <time>2015-02-10T13:28:53Z</time>
      </trkpt>
      <trkpt lat="45.76057" lon="6.07734">
        <ele>926.68</ele>
        <time>2015-02-10T13:28:55Z</time>
      </trkpt>
      <trkpt lat="45.76051" lon="6.07737">
        <ele>922.22</ele>
        <time>2015-02-10T13:28:59Z</time>
      </trkpt>
      <trkpt lat="45.76049" lon="6.07741">
        <ele>921.36</ele>
        <time>2015-02-10T13:29:02Z</time>
      </trkpt>
      <trkpt lat="45.76036" lon="6.07738">
        <ele>916.42</ele>
        <time>2015-02-10T13:29:06Z</time>
      </trkpt>
      <trkpt lat="45.76031" lon="6.07729">
        <ele>913.09</ele>
        <time>2015-02-10T13:29:08Z</time>
      </trkpt>
      <trkpt lat="45.76022" lon="6.07723">
        <ele>909.6</ele>
        <time>2015-02-10T13:29:10Z</time>
      </trkpt>
      <trkpt lat="45.76011" lon="6.07721">
        <ele>904.84</ele>
        <time>2015-02-10T13:29:14Z</time>
      </trkpt>
      <trkpt lat="45.76003" lon="6.0772">
        <ele>900.78</ele>
        <time>2015-02-10T13:29:25Z</time>
      </trkpt>
      <trkpt lat="45.75998" lon="6.07712">
        <ele>897.4</ele>
        <time>2015-02-10T13:29:27Z</time>
      </trkpt>
      <trkpt lat="45.7599" lon="6.07704">
        <ele>895.35</ele>
        <time>2015-02-10T13:29:30Z</time>
      </trkpt>
      <trkpt lat="45.75976" lon="6.07697">
        <ele>891.7</ele>
        <time>2015-02-10T13:29:35Z</time>
      </trkpt>
      <trkpt lat="45.75971" lon="6.07698">
        <ele>890.52</ele>
        <time>2015-02-10T13:29:36Z</time>
      </trkpt>
      <trkpt lat="45.75953" lon="6.07682">
        <ele>885.03</ele>
        <time>2015-02-10T13:29:41Z</time>
      </trkpt>
      <trkpt lat="45.75939" lon="6.07671">
        <ele>879.79</ele>
        <time>2015-02-10T13:29:44Z</time>
      </trkpt>
      <trkpt lat="45.75925" lon="6.0767">
        <ele>876.58</ele>
        <time>2015-02-10T13:29:47Z</time>
      </trkpt>
      <trkpt lat="45.75901" lon="6.07678">
        <ele>870.53</ele>
        <time>2015-02-10T13:29:51Z</time>
      </trkpt>
      <trkpt lat="45.75885" lon="6.07684">
        <ele>866.59</ele>
        <time>2015-02-10T13:29:53Z</time>
      </trkpt>
      <trkpt lat="45.75869" lon="6.07692">
        <ele>863.84</ele>
        <time>2015-02-10T13:29:55Z</time>
      </trkpt>
      <trkpt lat="45.75845" lon="6.07696">
        <ele>859.93</ele>
        <time>2015-02-10T13:29:58Z</time>
      </trkpt>
      <trkpt lat="45.7582" lon="6.07712">
        <ele>855.62</ele>
        <time>2015-02-10T13:30:03Z</time>
      </trkpt>
      <trkpt lat="45.75818" lon="6.0772">
        <ele>855.03</ele>
        <time>2015-02-10T13:30:04Z</time>
      </trkpt>
      <trkpt lat="45.7581" lon="6.07739">
        <ele>853.04</ele>
        <time>2015-02-10T13:30:07Z</time>
      </trkpt>
      <trkpt lat="45.75796" lon="6.07751">
        <ele>851.45</ele>
        <time>2015-02-10T13:30:11Z</time>
      </trkpt>
      <trkpt lat="45.7577" lon="6.07759">
        <ele>848.55</ele>
        <time>2015-02-10T13:30:19Z</time>
      </trkpt>
      <trkpt lat="45.75757" lon="6.0777">
        <ele>846.09</ele>
        <time>2015-02-10T13:30:22Z</time>
      </trkpt>
      <trkpt lat="45.75737" lon="6.07791">
        <ele>842.37</ele>
        <time>2015-02-10T13:30:26Z</time>
      </trkpt>
      <trkpt lat="45.75716" lon="6.07809">
        <ele>837.72</ele>
        <time>2015-02-10T13:30:29Z</time>
      </trkpt>
      <trkpt lat="45.75704" lon="6.07824">
        <ele>834.02</ele>
        <time>2015-02-10T13:30:31Z</time>
      </trkpt>
      <trkpt lat="45.7569" lon="6.07842">
        <ele>830.68</ele>
        <time>2015-02-10T13:30:34Z</time>
      </trkpt>
      <trkpt lat="45.75678" lon="6.07853">
        <ele>827.47</ele>
        <time>2015-02-10T13:30:38Z</time>
      </trkpt>
      <trkpt lat="45.75669" lon="6.07864">
        <ele>823.56</ele>
        <time>2015-02-10T13:30:42Z</time>
      </trkpt>
      <trkpt lat="45.75662" lon="6.07881">
        <ele>820.03</ele>
        <time>2015-02-10T13:30:46Z</time>
      </trkpt>
      <trkpt lat="45.75655" lon="6.07898">
        <ele>815.95</ele>
        <time>2015-02-10T13:30:49Z</time>
      </trkpt>
      <trkpt lat="45.75653" lon="6.07904">
        <ele>814.79</ele>
        <time>2015-02-10T13:30:50Z</time>
      </trkpt>
      <trkpt lat="45.7565" lon="6.07923">
        <ele>810.32</ele>
        <time>2015-02-10T13:30:56Z</time>
      </trkpt>
      <trkpt lat="45.75649" lon="6.07928">
        <ele>810.05</ele>
        <time>2015-02-10T13:31:00Z</time>
      </trkpt>
      <trkpt lat="45.75639" lon="6.07943">
        <ele>806.11</ele>
        <time>2015-02-10T13:31:05Z</time>
      </trkpt>
      <trkpt lat="45.75634" lon="6.07953">
        <ele>804.08</ele>
        <time>2015-02-10T13:31:07Z</time>
      </trkpt>
      <trkpt lat="45.75622" lon="6.07963">
        <ele>799.47</ele>
        <time>2015-02-10T13:31:11Z</time>
      </trkpt>
      <trkpt lat="45.75606" lon="6.07966">
        <ele>794.6</ele>
        <time>2015-02-10T13:31:16Z</time>
      </trkpt>
      <trkpt lat="45.75602" lon="6.07966">
        <ele>793.6</ele>
        <time>2015-02-10T13:31:17Z</time>
      </trkpt>
      <trkpt lat="45.75589" lon="6.07969">
        <ele>788.38</ele>
        <time>2015-02-10T13:31:21Z</time>
      </trkpt>
      <trkpt lat="45.75587" lon="6.0797">
        <ele>787.65</ele>
        <time>2015-02-10T13:31:23Z</time>
      </trkpt>
      <trkpt lat="45.75585" lon="6.07973">
        <ele>787.16</ele>
        <time>2015-02-10T13:31:27Z</time>
      </trkpt>
      <trkpt lat="45.75582" lon="6.07974">
        <ele>786.37</ele>
        <time>2015-02-10T13:31:29Z</time>
      </trkpt>
      <trkpt lat="45.7557" lon="6.07982">
        <ele>782.02</ele>
        <time>2015-02-10T13:31:34Z</time>
      </trkpt>
      <trkpt lat="45.75562" lon="6.07982">
        <ele>778.99</ele>
        <time>2015-02-10T13:31:37Z</time>
      </trkpt>
      <trkpt lat="45.75551" lon="6.07982">
        <ele>774.77</ele>
        <time>2015-02-10T13:31:40Z</time>
      </trkpt>
      <trkpt lat="45.75546" lon="6.07982">
        <ele>773.18</ele>
        <time>2015-02-10T13:31:41Z</time>
      </trkpt>
      <trkpt lat="45.75536" lon="6.07978">
        <ele>767.51</ele>
        <time>2015-02-10T13:31:45Z</time>
      </trkpt>
      <trkpt lat="45.75532" lon="6.0798">
        <ele>766.26</ele>
        <time>2015-02-10T13:31:50Z</time>
      </trkpt>
      <trkpt lat="45.75518" lon="6.07981">
        <ele>761.84</ele>
        <time>2015-02-10T13:31:55Z</time>
      </trkpt>
      <trkpt lat="45.75507" lon="6.07981">
        <ele>758.92</ele>
        <time>2015-02-10T13:31:59Z</time>
      </trkpt>
      <trkpt lat="45.75495" lon="6.08002">
        <ele>754.81</ele>
        <time>2015-02-10T13:32:09Z</time>
      </trkpt>
      <trkpt lat="45.75486" lon="6.08011">
        <ele>751.77</ele>
        <time>2015-02-10T13:32:12Z</time>
      </trkpt>
      <trkpt lat="45.75478" lon="6.08022">
        <ele>748.68</ele>
        <time>2015-02-10T13:32:15Z</time>
      </trkpt>
      <trkpt lat="45.75476" lon="6.08023">
        <ele>747.64</ele>
        <time>2015-02-10T13:32:16Z</time>
      </trkpt>
      <trkpt lat="45.75473" lon="6.08023">
        <ele>744.28</ele>
        <time>2015-02-10T13:32:20Z</time>
      </trkpt>
      <trkpt lat="45.75472" lon="6.08023">
        <ele>744.16</ele>
        <time>2015-02-10T13:32:21Z</time>
      </trkpt>
      <trkpt lat="45.75469" lon="6.08022">
        <ele>743.68</ele>
        <time>2015-02-10T13:32:25Z</time>
      </trkpt>
      <trkpt lat="45.75456" lon="6.08034">
        <ele>739.47</ele>
        <time>2015-02-10T13:32:30Z</time>
      </trkpt>
      <trkpt lat="45.75452" lon="6.08036">
        <ele>738.38</ele>
        <time>2015-02-10T13:32:31Z</time>
      </trkpt>
      <trkpt lat="45.75437" lon="6.08052">
        <ele>732.41</ele>
        <time>2015-02-10T13:32:35Z</time>
      </trkpt>
      <trkpt lat="45.7543" lon="6.08062">
        <ele>729.78</ele>
        <time>2015-02-10T13:32:37Z</time>
      </trkpt>
      <trkpt lat="45.75416" lon="6.08094">
        <ele>725.23</ele>
        <time>2015-02-10T13:32:42Z</time>
      </trkpt>
      <trkpt lat="45.75407" lon="6.081">
        <ele>722.81</ele>
        <time>2015-02-10T13:32:44Z</time>
      </trkpt>
      <trkpt lat="45.75393" lon="6.08108">
        <ele>717.74</ele>
        <time>2015-02-10T13:32:47Z</time>
      </trkpt>
      <trkpt lat="45.75384" lon="6.08113">
        <ele>714.67</ele>
        <time>2015-02-10T13:32:51Z</time>
      </trkpt>
      <trkpt lat="45.75383" lon="6.08121">
        <ele>713.83</ele>
        <time>2015-02-10T13:33:16Z</time>
      </trkpt>
      <trkpt lat="45.7538" lon="6.08126">
        <ele>713.32</ele>
        <time>2015-02-10T13:33:40Z</time>
      </trkpt>
      <trkpt lat="45.75371" lon="6.08133">
        <ele>711.06</ele>
        <time>2015-02-10T13:33:50Z</time>
      </trkpt>
      <trkpt lat="45.75356" lon="6.08148">
        <ele>707.6</ele>
        <time>2015-02-10T13:34:03Z</time>
      </trkpt>
      <trkpt lat="45.75353" lon="6.08152">
        <ele>706.9</ele>
        <time>2015-02-10T13:34:06Z</time>
      </trkpt>
      <trkpt lat="45.75345" lon="6.08168">
        <ele>704.28</ele>
        <time>2015-02-10T13:34:17Z</time>
      </trkpt>
      <trkpt lat="45.75336" lon="6.08185">
        <ele>700.79</ele>
        <time>2015-02-10T13:34:28Z</time>
      </trkpt>
      <trkpt lat="45.75332" lon="6.08192">
        <ele>697.74</ele>
        <time>2015-02-10T13:34:36Z</time>
      </trkpt>
      <trkpt lat="45.75326" lon="6.08188">
        <ele>695.31</ele>
        <time>2015-02-10T13:34:50Z</time>
      </trkpt>
      <trkpt lat="45.75322" lon="6.08182">
        <ele>693.47</ele>
        <time>2015-02-10T13:35:01Z</time>
      </trkpt>
      <trkpt lat="45.75319" lon="6.08173">
        <ele>691.67</ele>
        <time>2015-02-10T13:35:15Z</time>
      </trkpt>
      <trkpt lat="45.75312" lon="6.08169">
        <ele>689.18</ele>
        <time>2015-02-10T13:35:32Z</time>
      </trkpt>
      <trkpt lat="45.75311" lon="6.08168">
        <ele>688.84</ele>
        <time>2015-02-10T13:35:35Z</time>
      </trkpt>
    </trkseg>
  </trk>
</gpx>